<?xml version="1.0" encoding="UTF-8" standalone="no" ?>
<gpx xmlns="http://www.topografix.com/GPX/1/1" xmlns:xsi="http://www.w3.org/2001/XMLSchema-instance" xsi:schemaLocation="http://www.topografix.com/GPX/1/1 http://www.topografix.com/GPX/1/1/gpx.xsd" version="1.1" creator="VisuGPX - https://www.visugpx.com">
  <metadata>
    <name>De Malpasset à l'Avellan</name>
  </metadata>
  <trk>
    <name><![CDATA[Les Adrets-de-l'Estérel Cyclisme]]></name>
    <trkseg>
      <trkpt lat="43.50453" lon="6.75827">
        <ele>-17.60000038147</ele>
        <time>2017-03-10T09:00:49.000Z</time>
      </trkpt>
      <trkpt lat="43.50453" lon="6.75827">
        <ele>-17.60000038147</ele>
        <time>2017-03-10T09:00:50.000Z</time>
      </trkpt>
      <trkpt lat="43.50455" lon="6.75833">
        <ele>-17.60000038147</ele>
        <time>2017-03-10T09:00:56.000Z</time>
      </trkpt>
      <trkpt lat="43.50465" lon="6.75851">
        <ele>-17.60000038147</ele>
        <time>2017-03-10T09:01:00.000Z</time>
      </trkpt>
      <trkpt lat="43.50468" lon="6.75855">
        <ele>-17.60000038147</ele>
        <time>2017-03-10T09:01:01.000Z</time>
      </trkpt>
      <trkpt lat="43.50471" lon="6.75875">
        <ele>-18.39999961853</ele>
        <time>2017-03-10T09:01:04.000Z</time>
      </trkpt>
      <trkpt lat="43.50471" lon="6.75883">
        <ele>-18.39999961853</ele>
        <time>2017-03-10T09:01:05.000Z</time>
      </trkpt>
      <trkpt lat="43.50466" lon="6.75921">
        <ele>-18.799999237061</ele>
        <time>2017-03-10T09:01:16.000Z</time>
      </trkpt>
      <trkpt lat="43.50467" lon="6.75923">
        <ele>-18.39999961853</ele>
        <time>2017-03-10T09:01:19.000Z</time>
      </trkpt>
      <trkpt lat="43.50472" lon="6.7592">
        <ele>-17.39999961853</ele>
        <time>2017-03-10T09:01:48.000Z</time>
      </trkpt>
      <trkpt lat="43.50453" lon="6.75911">
        <ele>-17.39999961853</ele>
        <time>2017-03-10T09:01:54.000Z</time>
      </trkpt>
      <trkpt lat="43.50444" lon="6.75908">
        <ele>-17.60000038147</ele>
        <time>2017-03-10T09:01:56.000Z</time>
      </trkpt>
      <trkpt lat="43.50424" lon="6.75936">
        <ele>-18</ele>
        <time>2017-03-10T09:02:05.000Z</time>
      </trkpt>
      <trkpt lat="43.50451" lon="6.75984">
        <ele>-16.200000762939</ele>
        <time>2017-03-10T09:02:18.000Z</time>
      </trkpt>
      <trkpt lat="43.50461" lon="6.75995">
        <ele>-15</ele>
        <time>2017-03-10T09:02:21.000Z</time>
      </trkpt>
      <trkpt lat="43.50473" lon="6.76004">
        <ele>-14.39999961853</ele>
        <time>2017-03-10T09:02:24.000Z</time>
      </trkpt>
      <trkpt lat="43.50482" lon="6.76008">
        <ele>-13.800000190735</ele>
        <time>2017-03-10T09:02:26.000Z</time>
      </trkpt>
      <trkpt lat="43.50495" lon="6.76013">
        <ele>-12.60000038147</ele>
        <time>2017-03-10T09:02:29.000Z</time>
      </trkpt>
      <trkpt lat="43.50507" lon="6.7602">
        <ele>-11.199999809265</ele>
        <time>2017-03-10T09:02:32.000Z</time>
      </trkpt>
      <trkpt lat="43.50518" lon="6.76036">
        <ele>-9.8000001907349</ele>
        <time>2017-03-10T09:02:36.000Z</time>
      </trkpt>
      <trkpt lat="43.50521" lon="6.76042">
        <ele>-9.3999996185303</ele>
        <time>2017-03-10T09:02:37.000Z</time>
      </trkpt>
      <trkpt lat="43.50523" lon="6.76047">
        <ele>-9</ele>
        <time>2017-03-10T09:02:38.000Z</time>
      </trkpt>
      <trkpt lat="43.50526" lon="6.76054">
        <ele>-8.3999996185303</ele>
        <time>2017-03-10T09:02:39.000Z</time>
      </trkpt>
      <trkpt lat="43.50529" lon="6.76066">
        <ele>-7.4000000953674</ele>
        <time>2017-03-10T09:02:41.000Z</time>
      </trkpt>
      <trkpt lat="43.50534" lon="6.76083">
        <ele>-5.8000001907349</ele>
        <time>2017-03-10T09:02:44.000Z</time>
      </trkpt>
      <trkpt lat="43.50538" lon="6.76094">
        <ele>-4.8000001907349</ele>
        <time>2017-03-10T09:02:46.000Z</time>
      </trkpt>
      <trkpt lat="43.50542" lon="6.76112">
        <ele>-3.4000000953674</ele>
        <time>2017-03-10T09:02:49.000Z</time>
      </trkpt>
      <trkpt lat="43.50545" lon="6.76131">
        <ele>-1.7999999523163</ele>
        <time>2017-03-10T09:02:52.000Z</time>
      </trkpt>
      <trkpt lat="43.50557" lon="6.76182">
        <ele>-0.80000001192093</ele>
        <time>2017-03-10T09:03:00.000Z</time>
      </trkpt>
      <trkpt lat="43.50587" lon="6.76239">
        <ele>0.20000000298023</ele>
        <time>2017-03-10T09:03:10.000Z</time>
      </trkpt>
      <trkpt lat="43.50598" lon="6.76257">
        <ele>1</ele>
        <time>2017-03-10T09:03:13.000Z</time>
      </trkpt>
      <trkpt lat="43.50603" lon="6.76299">
        <ele>1.6000000238419</ele>
        <time>2017-03-10T09:03:19.000Z</time>
      </trkpt>
      <trkpt lat="43.50607" lon="6.76333">
        <ele>2.7999999523163</ele>
        <time>2017-03-10T09:03:24.000Z</time>
      </trkpt>
      <trkpt lat="43.50609" lon="6.76339">
        <ele>3.2000000476837</ele>
        <time>2017-03-10T09:03:25.000Z</time>
      </trkpt>
      <trkpt lat="43.50618" lon="6.76352">
        <ele>4.5999999046326</ele>
        <time>2017-03-10T09:03:28.000Z</time>
      </trkpt>
      <trkpt lat="43.50626" lon="6.76357">
        <ele>6</ele>
        <time>2017-03-10T09:03:30.000Z</time>
      </trkpt>
      <trkpt lat="43.50631" lon="6.76359">
        <ele>7</ele>
        <time>2017-03-10T09:03:31.000Z</time>
      </trkpt>
      <trkpt lat="43.50635" lon="6.76361">
        <ele>8.1999998092651</ele>
        <time>2017-03-10T09:03:32.000Z</time>
      </trkpt>
      <trkpt lat="43.50644" lon="6.76365">
        <ele>9.8000001907349</ele>
        <time>2017-03-10T09:03:34.000Z</time>
      </trkpt>
      <trkpt lat="43.50652" lon="6.76367">
        <ele>11</ele>
        <time>2017-03-10T09:03:36.000Z</time>
      </trkpt>
      <trkpt lat="43.50669" lon="6.76373">
        <ele>12.199999809265</ele>
        <time>2017-03-10T09:03:40.000Z</time>
      </trkpt>
      <trkpt lat="43.50687" lon="6.76383">
        <ele>13.39999961853</ele>
        <time>2017-03-10T09:03:44.000Z</time>
      </trkpt>
      <trkpt lat="43.50721" lon="6.76405">
        <ele>14.60000038147</ele>
        <time>2017-03-10T09:03:51.000Z</time>
      </trkpt>
      <trkpt lat="43.5075" lon="6.76428">
        <ele>15</ele>
        <time>2017-03-10T09:03:58.000Z</time>
      </trkpt>
      <trkpt lat="43.50759" lon="6.76443">
        <ele>16.200000762939</ele>
        <time>2017-03-10T09:04:01.000Z</time>
      </trkpt>
      <trkpt lat="43.50784" lon="6.76478">
        <ele>17.200000762939</ele>
        <time>2017-03-10T09:04:07.000Z</time>
      </trkpt>
      <trkpt lat="43.50788" lon="6.76501">
        <ele>17.60000038147</ele>
        <time>2017-03-10T09:04:10.000Z</time>
      </trkpt>
      <trkpt lat="43.50792" lon="6.76526">
        <ele>17.60000038147</ele>
        <time>2017-03-10T09:04:13.000Z</time>
      </trkpt>
      <trkpt lat="43.50811" lon="6.76579">
        <ele>17.39999961853</ele>
        <time>2017-03-10T09:04:18.000Z</time>
      </trkpt>
      <trkpt lat="43.50815" lon="6.76628">
        <ele>15.800000190735</ele>
        <time>2017-03-10T09:04:22.000Z</time>
      </trkpt>
      <trkpt lat="43.50811" lon="6.76651">
        <ele>14</ele>
        <time>2017-03-10T09:04:24.000Z</time>
      </trkpt>
      <trkpt lat="43.50808" lon="6.7666">
        <ele>12.60000038147</ele>
        <time>2017-03-10T09:04:25.000Z</time>
      </trkpt>
      <trkpt lat="43.50805" lon="6.76669">
        <ele>10.800000190735</ele>
        <time>2017-03-10T09:04:26.000Z</time>
      </trkpt>
      <trkpt lat="43.50801" lon="6.76676">
        <ele>9.8000001907349</ele>
        <time>2017-03-10T09:04:27.000Z</time>
      </trkpt>
      <trkpt lat="43.50783" lon="6.76689">
        <ele>8.8000001907349</ele>
        <time>2017-03-10T09:04:32.000Z</time>
      </trkpt>
      <trkpt lat="43.5078" lon="6.76691">
        <ele>8.8000001907349</ele>
        <time>2017-03-10T09:04:33.000Z</time>
      </trkpt>
      <trkpt lat="43.50768" lon="6.767">
        <ele>10.199999809265</ele>
        <time>2017-03-10T09:04:37.000Z</time>
      </trkpt>
      <trkpt lat="43.50767" lon="6.76708">
        <ele>11.199999809265</ele>
        <time>2017-03-10T09:04:39.000Z</time>
      </trkpt>
      <trkpt lat="43.50769" lon="6.76717">
        <ele>12.199999809265</ele>
        <time>2017-03-10T09:04:41.000Z</time>
      </trkpt>
      <trkpt lat="43.50775" lon="6.7674">
        <ele>13.39999961853</ele>
        <time>2017-03-10T09:04:45.000Z</time>
      </trkpt>
      <trkpt lat="43.50777" lon="6.76752">
        <ele>14.199999809265</ele>
        <time>2017-03-10T09:04:47.000Z</time>
      </trkpt>
      <trkpt lat="43.50777" lon="6.76759">
        <ele>14.60000038147</ele>
        <time>2017-03-10T09:04:48.000Z</time>
      </trkpt>
      <trkpt lat="43.50773" lon="6.7678">
        <ele>15.199999809265</ele>
        <time>2017-03-10T09:04:51.000Z</time>
      </trkpt>
      <trkpt lat="43.50766" lon="6.76806">
        <ele>15.800000190735</ele>
        <time>2017-03-10T09:04:55.000Z</time>
      </trkpt>
      <trkpt lat="43.50751" lon="6.76835">
        <ele>17.200000762939</ele>
        <time>2017-03-10T09:05:00.000Z</time>
      </trkpt>
      <trkpt lat="43.50744" lon="6.76845">
        <ele>18.200000762939</ele>
        <time>2017-03-10T09:05:02.000Z</time>
      </trkpt>
      <trkpt lat="43.50737" lon="6.76856">
        <ele>18.799999237061</ele>
        <time>2017-03-10T09:05:04.000Z</time>
      </trkpt>
      <trkpt lat="43.50733" lon="6.76869">
        <ele>19.39999961853</ele>
        <time>2017-03-10T09:05:06.000Z</time>
      </trkpt>
      <trkpt lat="43.5073" lon="6.76892">
        <ele>20.39999961853</ele>
        <time>2017-03-10T09:05:09.000Z</time>
      </trkpt>
      <trkpt lat="43.5073" lon="6.76899">
        <ele>20.60000038147</ele>
        <time>2017-03-10T09:05:10.000Z</time>
      </trkpt>
      <trkpt lat="43.50733" lon="6.76943">
        <ele>21.200000762939</ele>
        <time>2017-03-10T09:05:16.000Z</time>
      </trkpt>
      <trkpt lat="43.50732" lon="6.76958">
        <ele>21.39999961853</ele>
        <time>2017-03-10T09:05:20.000Z</time>
      </trkpt>
      <trkpt lat="43.50744" lon="6.7695">
        <ele>22.200000762939</ele>
        <time>2017-03-10T09:05:25.000Z</time>
      </trkpt>
      <trkpt lat="43.50745" lon="6.76944">
        <ele>24</ele>
        <time>2017-03-10T09:05:27.000Z</time>
      </trkpt>
      <trkpt lat="43.50746" lon="6.76943">
        <ele>25.200000762939</ele>
        <time>2017-03-10T09:05:29.000Z</time>
      </trkpt>
      <trkpt lat="43.50746" lon="6.76946">
        <ele>25.39999961853</ele>
        <time>2017-03-10T09:05:30.000Z</time>
      </trkpt>
      <trkpt lat="43.5071" lon="6.76915">
        <ele>25.200000762939</ele>
        <time>2017-03-10T09:05:42.000Z</time>
      </trkpt>
      <trkpt lat="43.50708" lon="6.76909">
        <ele>24.39999961853</ele>
        <time>2017-03-10T09:05:43.000Z</time>
      </trkpt>
      <trkpt lat="43.50702" lon="6.76897">
        <ele>23</ele>
        <time>2017-03-10T09:05:45.000Z</time>
      </trkpt>
      <trkpt lat="43.50693" lon="6.76895">
        <ele>21.60000038147</ele>
        <time>2017-03-10T09:05:47.000Z</time>
      </trkpt>
      <trkpt lat="43.5068" lon="6.76939">
        <ele>21</ele>
        <time>2017-03-10T09:05:54.000Z</time>
      </trkpt>
      <trkpt lat="43.50678" lon="6.76946">
        <ele>21</ele>
        <time>2017-03-10T09:05:55.000Z</time>
      </trkpt>
      <trkpt lat="43.50643" lon="6.76974">
        <ele>21.799999237061</ele>
        <time>2017-03-10T09:06:06.000Z</time>
      </trkpt>
      <trkpt lat="43.50598" lon="6.76943">
        <ele>21.39999961853</ele>
        <time>2017-03-10T09:06:15.000Z</time>
      </trkpt>
      <trkpt lat="43.50592" lon="6.76945">
        <ele>21.39999961853</ele>
        <time>2017-03-10T09:06:16.000Z</time>
      </trkpt>
      <trkpt lat="43.50565" lon="6.76953">
        <ele>20.799999237061</ele>
        <time>2017-03-10T09:06:21.000Z</time>
      </trkpt>
      <trkpt lat="43.50551" lon="6.76902">
        <ele>20.799999237061</ele>
        <time>2017-03-10T09:06:28.000Z</time>
      </trkpt>
      <trkpt lat="43.5055" lon="6.7689">
        <ele>20.799999237061</ele>
        <time>2017-03-10T09:06:29.000Z</time>
      </trkpt>
      <trkpt lat="43.50537" lon="6.76843">
        <ele>19.799999237061</ele>
        <time>2017-03-10T09:06:33.000Z</time>
      </trkpt>
      <trkpt lat="43.50533" lon="6.76831">
        <ele>18.799999237061</ele>
        <time>2017-03-10T09:06:34.000Z</time>
      </trkpt>
      <trkpt lat="43.50529" lon="6.76819">
        <ele>17.60000038147</ele>
        <time>2017-03-10T09:06:35.000Z</time>
      </trkpt>
      <trkpt lat="43.50525" lon="6.76806">
        <ele>15.800000190735</ele>
        <time>2017-03-10T09:06:36.000Z</time>
      </trkpt>
      <trkpt lat="43.50521" lon="6.76794">
        <ele>14.199999809265</ele>
        <time>2017-03-10T09:06:37.000Z</time>
      </trkpt>
      <trkpt lat="43.50519" lon="6.76781">
        <ele>12.800000190735</ele>
        <time>2017-03-10T09:06:38.000Z</time>
      </trkpt>
      <trkpt lat="43.50517" lon="6.76768">
        <ele>11.60000038147</ele>
        <time>2017-03-10T09:06:39.000Z</time>
      </trkpt>
      <trkpt lat="43.50516" lon="6.76756">
        <ele>10.39999961853</ele>
        <time>2017-03-10T09:06:40.000Z</time>
      </trkpt>
      <trkpt lat="43.50516" lon="6.76744">
        <ele>8.8000001907349</ele>
        <time>2017-03-10T09:06:41.000Z</time>
      </trkpt>
      <trkpt lat="43.50516" lon="6.76732">
        <ele>7.4000000953674</ele>
        <time>2017-03-10T09:06:42.000Z</time>
      </trkpt>
      <trkpt lat="43.50516" lon="6.76719">
        <ele>6.4000000953674</ele>
        <time>2017-03-10T09:06:43.000Z</time>
      </trkpt>
      <trkpt lat="43.50516" lon="6.76707">
        <ele>5.1999998092651</ele>
        <time>2017-03-10T09:06:44.000Z</time>
      </trkpt>
      <trkpt lat="43.50511" lon="6.76682">
        <ele>4</ele>
        <time>2017-03-10T09:06:46.000Z</time>
      </trkpt>
      <trkpt lat="43.50508" lon="6.76672">
        <ele>3.4000000953674</ele>
        <time>2017-03-10T09:06:47.000Z</time>
      </trkpt>
      <trkpt lat="43.50488" lon="6.76654">
        <ele>3</ele>
        <time>2017-03-10T09:06:50.000Z</time>
      </trkpt>
      <trkpt lat="43.50475" lon="6.7667">
        <ele>1.6000000238419</ele>
        <time>2017-03-10T09:06:53.000Z</time>
      </trkpt>
      <trkpt lat="43.50479" lon="6.76689">
        <ele>56</ele>
        <time>2017-03-10T09:06:55.000Z</time>
      </trkpt>
      <trkpt lat="43.50481" lon="6.76708">
        <ele>-1</ele>
        <time>2017-03-10T09:06:57.000Z</time>
      </trkpt>
      <trkpt lat="43.50479" lon="6.76715">
        <ele>-2.2000000476837</ele>
        <time>2017-03-10T09:06:58.000Z</time>
      </trkpt>
      <trkpt lat="43.50466" lon="6.76719">
        <ele>-2.4000000953674</ele>
        <time>2017-03-10T09:07:01.000Z</time>
      </trkpt>
      <trkpt lat="43.50453" lon="6.76726">
        <ele>-2.5999999046326</ele>
        <time>2017-03-10T09:07:05.000Z</time>
      </trkpt>
      <trkpt lat="43.50452" lon="6.76752">
        <ele>-1</ele>
        <time>2017-03-10T09:07:10.000Z</time>
      </trkpt>
      <trkpt lat="43.50452" lon="6.76758">
        <ele>-0.40000000596046</ele>
        <time>2017-03-10T09:07:11.000Z</time>
      </trkpt>
      <trkpt lat="43.50453" lon="6.7677">
        <ele>1</ele>
        <time>2017-03-10T09:07:13.000Z</time>
      </trkpt>
      <trkpt lat="43.50451" lon="6.7679">
        <ele>2</ele>
        <time>2017-03-10T09:07:16.000Z</time>
      </trkpt>
      <trkpt lat="43.50447" lon="6.76808">
        <ele>3.2000000476837</ele>
        <time>2017-03-10T09:07:19.000Z</time>
      </trkpt>
      <trkpt lat="43.50445" lon="6.76819">
        <ele>4.4000000953674</ele>
        <time>2017-03-10T09:07:21.000Z</time>
      </trkpt>
      <trkpt lat="43.50441" lon="6.7683">
        <ele>5.5999999046326</ele>
        <time>2017-03-10T09:07:23.000Z</time>
      </trkpt>
      <trkpt lat="43.5044" lon="6.76836">
        <ele>6</ele>
        <time>2017-03-10T09:07:24.000Z</time>
      </trkpt>
      <trkpt lat="43.50438" lon="6.76848">
        <ele>7</ele>
        <time>2017-03-10T09:07:26.000Z</time>
      </trkpt>
      <trkpt lat="43.50437" lon="6.7686">
        <ele>8.8000001907349</ele>
        <time>2017-03-10T09:07:28.000Z</time>
      </trkpt>
      <trkpt lat="43.50435" lon="6.76871">
        <ele>9.8000001907349</ele>
        <time>2017-03-10T09:07:30.000Z</time>
      </trkpt>
      <trkpt lat="43.50433" lon="6.76876">
        <ele>10.199999809265</ele>
        <time>2017-03-10T09:07:31.000Z</time>
      </trkpt>
      <trkpt lat="43.50425" lon="6.76897">
        <ele>11.60000038147</ele>
        <time>2017-03-10T09:07:35.000Z</time>
      </trkpt>
      <trkpt lat="43.50418" lon="6.76912">
        <ele>12.60000038147</ele>
        <time>2017-03-10T09:07:38.000Z</time>
      </trkpt>
      <trkpt lat="43.50416" lon="6.76916">
        <ele>12.800000190735</ele>
        <time>2017-03-10T09:07:39.000Z</time>
      </trkpt>
      <trkpt lat="43.50406" lon="6.76928">
        <ele>13.800000190735</ele>
        <time>2017-03-10T09:07:42.000Z</time>
      </trkpt>
      <trkpt lat="43.50402" lon="6.76932">
        <ele>14.199999809265</ele>
        <time>2017-03-10T09:07:43.000Z</time>
      </trkpt>
      <trkpt lat="43.50389" lon="6.76945">
        <ele>14.800000190735</ele>
        <time>2017-03-10T09:07:46.000Z</time>
      </trkpt>
      <trkpt lat="43.50342" lon="6.76943">
        <ele>15.39999961853</ele>
        <time>2017-03-10T09:07:56.000Z</time>
      </trkpt>
      <trkpt lat="43.50324" lon="6.76959">
        <ele>15.800000190735</ele>
        <time>2017-03-10T09:08:01.000Z</time>
      </trkpt>
      <trkpt lat="43.50318" lon="6.76966">
        <ele>16.799999237061</ele>
        <time>2017-03-10T09:08:03.000Z</time>
      </trkpt>
      <trkpt lat="43.50312" lon="6.7697">
        <ele>17.799999237061</ele>
        <time>2017-03-10T09:08:05.000Z</time>
      </trkpt>
      <trkpt lat="43.50302" lon="6.76977">
        <ele>19.200000762939</ele>
        <time>2017-03-10T09:08:08.000Z</time>
      </trkpt>
      <trkpt lat="43.50292" lon="6.76981">
        <ele>20.39999961853</ele>
        <time>2017-03-10T09:08:11.000Z</time>
      </trkpt>
      <trkpt lat="43.50282" lon="6.76984">
        <ele>21.799999237061</ele>
        <time>2017-03-10T09:08:14.000Z</time>
      </trkpt>
      <trkpt lat="43.50271" lon="6.76987">
        <ele>23.39999961853</ele>
        <time>2017-03-10T09:08:17.000Z</time>
      </trkpt>
      <trkpt lat="43.50263" lon="6.76987">
        <ele>24.60000038147</ele>
        <time>2017-03-10T09:08:19.000Z</time>
      </trkpt>
      <trkpt lat="43.50252" lon="6.76986">
        <ele>25.60000038147</ele>
        <time>2017-03-10T09:08:22.000Z</time>
      </trkpt>
      <trkpt lat="43.50241" lon="6.76983">
        <ele>26.799999237061</ele>
        <time>2017-03-10T09:08:25.000Z</time>
      </trkpt>
      <trkpt lat="43.50235" lon="6.76976">
        <ele>27.799999237061</ele>
        <time>2017-03-10T09:08:27.000Z</time>
      </trkpt>
      <trkpt lat="43.5023" lon="6.76967">
        <ele>29</ele>
        <time>2017-03-10T09:08:29.000Z</time>
      </trkpt>
      <trkpt lat="43.50222" lon="6.76946">
        <ele>30</ele>
        <time>2017-03-10T09:08:33.000Z</time>
      </trkpt>
      <trkpt lat="43.50209" lon="6.76926">
        <ele>30.799999237061</ele>
        <time>2017-03-10T09:08:38.000Z</time>
      </trkpt>
      <trkpt lat="43.50154" lon="6.76898">
        <ele>31</ele>
        <time>2017-03-10T09:08:47.000Z</time>
      </trkpt>
      <trkpt lat="43.50131" lon="6.76857">
        <ele>29</ele>
        <time>2017-03-10T09:08:51.000Z</time>
      </trkpt>
      <trkpt lat="43.50125" lon="6.76847">
        <ele>28</ele>
        <time>2017-03-10T09:08:52.000Z</time>
      </trkpt>
      <trkpt lat="43.50118" lon="6.76839">
        <ele>27</ele>
        <time>2017-03-10T09:08:53.000Z</time>
      </trkpt>
      <trkpt lat="43.50101" lon="6.76829">
        <ele>24.799999237061</ele>
        <time>2017-03-10T09:08:55.000Z</time>
      </trkpt>
      <trkpt lat="43.50092" lon="6.76826">
        <ele>23.200000762939</ele>
        <time>2017-03-10T09:08:56.000Z</time>
      </trkpt>
      <trkpt lat="43.50084" lon="6.76823">
        <ele>21.799999237061</ele>
        <time>2017-03-10T09:08:57.000Z</time>
      </trkpt>
      <trkpt lat="43.50075" lon="6.76819">
        <ele>19.60000038147</ele>
        <time>2017-03-10T09:08:58.000Z</time>
      </trkpt>
      <trkpt lat="43.50058" lon="6.76811">
        <ele>18.200000762939</ele>
        <time>2017-03-10T09:09:00.000Z</time>
      </trkpt>
      <trkpt lat="43.50041" lon="6.76803">
        <ele>16.60000038147</ele>
        <time>2017-03-10T09:09:02.000Z</time>
      </trkpt>
      <trkpt lat="43.50023" lon="6.76795">
        <ele>15.199999809265</ele>
        <time>2017-03-10T09:09:04.000Z</time>
      </trkpt>
      <trkpt lat="43.50005" lon="6.76785">
        <ele>14.199999809265</ele>
        <time>2017-03-10T09:09:06.000Z</time>
      </trkpt>
      <trkpt lat="43.49991" lon="6.76778">
        <ele>12.800000190735</ele>
        <time>2017-03-10T09:09:08.000Z</time>
      </trkpt>
      <trkpt lat="43.49979" lon="6.76771">
        <ele>11.800000190735</ele>
        <time>2017-03-10T09:09:10.000Z</time>
      </trkpt>
      <trkpt lat="43.49967" lon="6.76767">
        <ele>10.39999961853</ele>
        <time>2017-03-10T09:09:12.000Z</time>
      </trkpt>
      <trkpt lat="43.49957" lon="6.76762">
        <ele>8.8000001907349</ele>
        <time>2017-03-10T09:09:14.000Z</time>
      </trkpt>
      <trkpt lat="43.49941" lon="6.7675">
        <ele>8</ele>
        <time>2017-03-10T09:09:17.000Z</time>
      </trkpt>
      <trkpt lat="43.49936" lon="6.76745">
        <ele>7.8000001907349</ele>
        <time>2017-03-10T09:09:18.000Z</time>
      </trkpt>
      <trkpt lat="43.49932" lon="6.76739">
        <ele>7.5999999046326</ele>
        <time>2017-03-10T09:09:19.000Z</time>
      </trkpt>
      <trkpt lat="43.4992" lon="6.76701">
        <ele>6.5999999046326</ele>
        <time>2017-03-10T09:09:24.000Z</time>
      </trkpt>
      <trkpt lat="43.49912" lon="6.76694">
        <ele>5.4000000953674</ele>
        <time>2017-03-10T09:09:27.000Z</time>
      </trkpt>
      <trkpt lat="43.4991" lon="6.7671">
        <ele>5.1999998092651</ele>
        <time>2017-03-10T09:09:30.000Z</time>
      </trkpt>
      <trkpt lat="43.49908" lon="6.76732">
        <ele>5.1999998092651</ele>
        <time>2017-03-10T09:09:33.000Z</time>
      </trkpt>
      <trkpt lat="43.49894" lon="6.76761">
        <ele>5.5999999046326</ele>
        <time>2017-03-10T09:09:38.000Z</time>
      </trkpt>
      <trkpt lat="43.49855" lon="6.76807">
        <ele>7</ele>
        <time>2017-03-10T09:09:48.000Z</time>
      </trkpt>
      <trkpt lat="43.49845" lon="6.7684">
        <ele>7.8000001907349</ele>
        <time>2017-03-10T09:09:53.000Z</time>
      </trkpt>
      <trkpt lat="43.49844" lon="6.76847">
        <ele>8</ele>
        <time>2017-03-10T09:09:54.000Z</time>
      </trkpt>
      <trkpt lat="43.49843" lon="6.76855">
        <ele>8</ele>
        <time>2017-03-10T09:09:55.000Z</time>
      </trkpt>
      <trkpt lat="43.49839" lon="6.76899">
        <ele>9.1999998092651</ele>
        <time>2017-03-10T09:10:01.000Z</time>
      </trkpt>
      <trkpt lat="43.49834" lon="6.76933">
        <ele>10.39999961853</ele>
        <time>2017-03-10T09:10:06.000Z</time>
      </trkpt>
      <trkpt lat="43.4983" lon="6.76945">
        <ele>10.60000038147</ele>
        <time>2017-03-10T09:10:08.000Z</time>
      </trkpt>
      <trkpt lat="43.49819" lon="6.76965">
        <ele>11.199999809265</ele>
        <time>2017-03-10T09:10:12.000Z</time>
      </trkpt>
      <trkpt lat="43.49816" lon="6.76969">
        <ele>11.60000038147</ele>
        <time>2017-03-10T09:10:13.000Z</time>
      </trkpt>
      <trkpt lat="43.498" lon="6.76988">
        <ele>12.800000190735</ele>
        <time>2017-03-10T09:10:18.000Z</time>
      </trkpt>
      <trkpt lat="43.49787" lon="6.76999">
        <ele>13.800000190735</ele>
        <time>2017-03-10T09:10:22.000Z</time>
      </trkpt>
      <trkpt lat="43.49774" lon="6.7701">
        <ele>15</ele>
        <time>2017-03-10T09:10:26.000Z</time>
      </trkpt>
      <trkpt lat="43.49764" lon="6.77027">
        <ele>16.200000762939</ele>
        <time>2017-03-10T09:10:30.000Z</time>
      </trkpt>
      <trkpt lat="43.49747" lon="6.77065">
        <ele>17.39999961853</ele>
        <time>2017-03-10T09:10:38.000Z</time>
      </trkpt>
      <trkpt lat="43.49735" lon="6.77087">
        <ele>18.39999961853</ele>
        <time>2017-03-10T09:10:43.000Z</time>
      </trkpt>
      <trkpt lat="43.49717" lon="6.77095">
        <ele>19.39999961853</ele>
        <time>2017-03-10T09:10:48.000Z</time>
      </trkpt>
      <trkpt lat="43.49712" lon="6.77088">
        <ele>19.60000038147</ele>
        <time>2017-03-10T09:10:50.000Z</time>
      </trkpt>
      <trkpt lat="43.4971" lon="6.77054">
        <ele>21</ele>
        <time>2017-03-10T09:10:56.000Z</time>
      </trkpt>
      <trkpt lat="43.49712" lon="6.77048">
        <ele>21.200000762939</ele>
        <time>2017-03-10T09:10:57.000Z</time>
      </trkpt>
      <trkpt lat="43.49713" lon="6.77043">
        <ele>21.39999961853</ele>
        <time>2017-03-10T09:10:58.000Z</time>
      </trkpt>
      <trkpt lat="43.49713" lon="6.77013">
        <ele>22</ele>
        <time>2017-03-10T09:11:03.000Z</time>
      </trkpt>
      <trkpt lat="43.49712" lon="6.77007">
        <ele>22.200000762939</ele>
        <time>2017-03-10T09:11:04.000Z</time>
      </trkpt>
      <trkpt lat="43.49702" lon="6.76959">
        <ele>23.39999961853</ele>
        <time>2017-03-10T09:11:14.000Z</time>
      </trkpt>
      <trkpt lat="43.497" lon="6.76942">
        <ele>24.60000038147</ele>
        <time>2017-03-10T09:11:18.000Z</time>
      </trkpt>
      <trkpt lat="43.49694" lon="6.76915">
        <ele>26</ele>
        <time>2017-03-10T09:11:24.000Z</time>
      </trkpt>
      <trkpt lat="43.49695" lon="6.76896">
        <ele>27.200000762939</ele>
        <time>2017-03-10T09:11:28.000Z</time>
      </trkpt>
      <trkpt lat="43.49711" lon="6.76874">
        <ele>28.39999961853</ele>
        <time>2017-03-10T09:11:35.000Z</time>
      </trkpt>
      <trkpt lat="43.49728" lon="6.76854">
        <ele>29.39999961853</ele>
        <time>2017-03-10T09:11:41.000Z</time>
      </trkpt>
      <trkpt lat="43.4974" lon="6.76845">
        <ele>30.60000038147</ele>
        <time>2017-03-10T09:11:45.000Z</time>
      </trkpt>
      <trkpt lat="43.49749" lon="6.76822">
        <ele>31.799999237061</ele>
        <time>2017-03-10T09:11:51.000Z</time>
      </trkpt>
      <trkpt lat="43.49746" lon="6.76799">
        <ele>33.400001525879</ele>
        <time>2017-03-10T09:11:56.000Z</time>
      </trkpt>
      <trkpt lat="43.49738" lon="6.76772">
        <ele>34.799999237061</ele>
        <time>2017-03-10T09:12:02.000Z</time>
      </trkpt>
      <trkpt lat="43.49734" lon="6.76749">
        <ele>36</ele>
        <time>2017-03-10T09:12:07.000Z</time>
      </trkpt>
      <trkpt lat="43.49728" lon="6.76717">
        <ele>37.400001525879</ele>
        <time>2017-03-10T09:12:14.000Z</time>
      </trkpt>
      <trkpt lat="43.49714" lon="6.76687">
        <ele>38.400001525879</ele>
        <time>2017-03-10T09:12:22.000Z</time>
      </trkpt>
      <trkpt lat="43.49707" lon="6.76671">
        <ele>39.400001525879</ele>
        <time>2017-03-10T09:12:26.000Z</time>
      </trkpt>
      <trkpt lat="43.49702" lon="6.76644">
        <ele>40.599998474121</ele>
        <time>2017-03-10T09:12:32.000Z</time>
      </trkpt>
      <trkpt lat="43.49695" lon="6.76633">
        <ele>41.200000762939</ele>
        <time>2017-03-10T09:12:35.000Z</time>
      </trkpt>
      <trkpt lat="43.49687" lon="6.76638">
        <ele>41.799999237061</ele>
        <time>2017-03-10T09:12:38.000Z</time>
      </trkpt>
      <trkpt lat="43.4969" lon="6.76661">
        <ele>43</ele>
        <time>2017-03-10T09:12:43.000Z</time>
      </trkpt>
      <trkpt lat="43.49691" lon="6.76676">
        <ele>43.599998474121</ele>
        <time>2017-03-10T09:12:46.000Z</time>
      </trkpt>
      <trkpt lat="43.49691" lon="6.76693">
        <ele>44</ele>
        <time>2017-03-10T09:12:49.000Z</time>
      </trkpt>
      <trkpt lat="43.49689" lon="6.7673">
        <ele>45.400001525879</ele>
        <time>2017-03-10T09:12:56.000Z</time>
      </trkpt>
      <trkpt lat="43.49688" lon="6.76759">
        <ele>46.200000762939</ele>
        <time>2017-03-10T09:13:01.000Z</time>
      </trkpt>
      <trkpt lat="43.49685" lon="6.7677">
        <ele>46.400001525879</ele>
        <time>2017-03-10T09:13:03.000Z</time>
      </trkpt>
      <trkpt lat="43.49669" lon="6.76793">
        <ele>47.400001525879</ele>
        <time>2017-03-10T09:13:09.000Z</time>
      </trkpt>
      <trkpt lat="43.4965" lon="6.76806">
        <ele>49</ele>
        <time>2017-03-10T09:13:14.000Z</time>
      </trkpt>
      <trkpt lat="43.49631" lon="6.76815">
        <ele>50.200000762939</ele>
        <time>2017-03-10T09:13:19.000Z</time>
      </trkpt>
      <trkpt lat="43.49615" lon="6.76825">
        <ele>51.400001525879</ele>
        <time>2017-03-10T09:13:24.000Z</time>
      </trkpt>
      <trkpt lat="43.49603" lon="6.76842">
        <ele>52.400001525879</ele>
        <time>2017-03-10T09:13:29.000Z</time>
      </trkpt>
      <trkpt lat="43.49592" lon="6.76856">
        <ele>53.599998474121</ele>
        <time>2017-03-10T09:13:33.000Z</time>
      </trkpt>
      <trkpt lat="43.49572" lon="6.76878">
        <ele>54.799999237061</ele>
        <time>2017-03-10T09:13:40.000Z</time>
      </trkpt>
      <trkpt lat="43.49557" lon="6.76904">
        <ele>56.200000762939</ele>
        <time>2017-03-10T09:13:48.000Z</time>
      </trkpt>
      <trkpt lat="43.49544" lon="6.76912">
        <ele>57.400001525879</ele>
        <time>2017-03-10T09:13:52.000Z</time>
      </trkpt>
      <trkpt lat="43.49534" lon="6.76914">
        <ele>58.599998474121</ele>
        <time>2017-03-10T09:13:55.000Z</time>
      </trkpt>
      <trkpt lat="43.49509" lon="6.7691">
        <ele>59.799999237061</ele>
        <time>2017-03-10T09:14:02.000Z</time>
      </trkpt>
      <trkpt lat="43.49484" lon="6.76914">
        <ele>61</ele>
        <time>2017-03-10T09:14:10.000Z</time>
      </trkpt>
      <trkpt lat="43.4947" lon="6.76911">
        <ele>62.200000762939</ele>
        <time>2017-03-10T09:14:15.000Z</time>
      </trkpt>
      <trkpt lat="43.49458" lon="6.76903">
        <ele>63.200000762939</ele>
        <time>2017-03-10T09:14:20.000Z</time>
      </trkpt>
      <trkpt lat="43.49451" lon="6.769">
        <ele>64.199996948242</ele>
        <time>2017-03-10T09:14:23.000Z</time>
      </trkpt>
      <trkpt lat="43.4944" lon="6.76896">
        <ele>65.400001525879</ele>
        <time>2017-03-10T09:14:27.000Z</time>
      </trkpt>
      <trkpt lat="43.4943" lon="6.76892">
        <ele>66.599998474121</ele>
        <time>2017-03-10T09:14:31.000Z</time>
      </trkpt>
      <trkpt lat="43.49419" lon="6.76887">
        <ele>68.199996948242</ele>
        <time>2017-03-10T09:14:35.000Z</time>
      </trkpt>
      <trkpt lat="43.49416" lon="6.76886">
        <ele>68.599998474121</ele>
        <time>2017-03-10T09:14:36.000Z</time>
      </trkpt>
      <trkpt lat="43.49411" lon="6.76883">
        <ele>69.400001525879</ele>
        <time>2017-03-10T09:14:38.000Z</time>
      </trkpt>
      <trkpt lat="43.49401" lon="6.76876">
        <ele>70.400001525879</ele>
        <time>2017-03-10T09:14:42.000Z</time>
      </trkpt>
      <trkpt lat="43.49387" lon="6.76864">
        <ele>71.800003051758</ele>
        <time>2017-03-10T09:14:47.000Z</time>
      </trkpt>
      <trkpt lat="43.49372" lon="6.76849">
        <ele>73</ele>
        <time>2017-03-10T09:14:53.000Z</time>
      </trkpt>
      <trkpt lat="43.49357" lon="6.76833">
        <ele>74.400001525879</ele>
        <time>2017-03-10T09:14:59.000Z</time>
      </trkpt>
      <trkpt lat="43.49345" lon="6.76819">
        <ele>75.400001525879</ele>
        <time>2017-03-10T09:15:04.000Z</time>
      </trkpt>
      <trkpt lat="43.49334" lon="6.76807">
        <ele>76.400001525879</ele>
        <time>2017-03-10T09:15:09.000Z</time>
      </trkpt>
      <trkpt lat="43.4933" lon="6.76797">
        <ele>77.800003051758</ele>
        <time>2017-03-10T09:15:13.000Z</time>
      </trkpt>
      <trkpt lat="43.49328" lon="6.76792">
        <ele>78.800003051758</ele>
        <time>2017-03-10T09:15:16.000Z</time>
      </trkpt>
      <trkpt lat="43.49326" lon="6.76792">
        <ele>79.199996948242</ele>
        <time>2017-03-10T09:15:17.000Z</time>
      </trkpt>
      <trkpt lat="43.49322" lon="6.76794">
        <ele>80.199996948242</ele>
        <time>2017-03-10T09:15:20.000Z</time>
      </trkpt>
      <trkpt lat="43.49314" lon="6.76799">
        <ele>80.800003051758</ele>
        <time>2017-03-10T09:15:24.000Z</time>
      </trkpt>
      <trkpt lat="43.49309" lon="6.76814">
        <ele>81.199996948242</ele>
        <time>2017-03-10T09:15:28.000Z</time>
      </trkpt>
      <trkpt lat="43.49307" lon="6.76823">
        <ele>81.199996948242</ele>
        <time>2017-03-10T09:15:30.000Z</time>
      </trkpt>
      <trkpt lat="43.49302" lon="6.76855">
        <ele>82.199996948242</ele>
        <time>2017-03-10T09:15:37.000Z</time>
      </trkpt>
      <trkpt lat="43.49303" lon="6.76888">
        <ele>83.599998474121</ele>
        <time>2017-03-10T09:15:45.000Z</time>
      </trkpt>
      <trkpt lat="43.49296" lon="6.76907">
        <ele>84.599998474121</ele>
        <time>2017-03-10T09:15:50.000Z</time>
      </trkpt>
      <trkpt lat="43.49286" lon="6.76925">
        <ele>85.599998474121</ele>
        <time>2017-03-10T09:15:55.000Z</time>
      </trkpt>
      <trkpt lat="43.49271" lon="6.76943">
        <ele>86.800003051758</ele>
        <time>2017-03-10T09:16:02.000Z</time>
      </trkpt>
      <trkpt lat="43.49256" lon="6.76967">
        <ele>88.199996948242</ele>
        <time>2017-03-10T09:16:10.000Z</time>
      </trkpt>
      <trkpt lat="43.49251" lon="6.76982">
        <ele>89.400001525879</ele>
        <time>2017-03-10T09:16:14.000Z</time>
      </trkpt>
      <trkpt lat="43.4925" lon="6.77004">
        <ele>90.400001525879</ele>
        <time>2017-03-10T09:16:19.000Z</time>
      </trkpt>
      <trkpt lat="43.49251" lon="6.77024">
        <ele>91.599998474121</ele>
        <time>2017-03-10T09:16:23.000Z</time>
      </trkpt>
      <trkpt lat="43.49248" lon="6.77054">
        <ele>92.599998474121</ele>
        <time>2017-03-10T09:16:29.000Z</time>
      </trkpt>
      <trkpt lat="43.49251" lon="6.77082">
        <ele>93.800003051758</ele>
        <time>2017-03-10T09:16:35.000Z</time>
      </trkpt>
      <trkpt lat="43.49252" lon="6.77103">
        <ele>95</ele>
        <time>2017-03-10T09:16:40.000Z</time>
      </trkpt>
      <trkpt lat="43.49245" lon="6.77123">
        <ele>96.199996948242</ele>
        <time>2017-03-10T09:16:45.000Z</time>
      </trkpt>
      <trkpt lat="43.49238" lon="6.77135">
        <ele>97.199996948242</ele>
        <time>2017-03-10T09:16:49.000Z</time>
      </trkpt>
      <trkpt lat="43.4923" lon="6.77149">
        <ele>98.400001525879</ele>
        <time>2017-03-10T09:16:53.000Z</time>
      </trkpt>
      <trkpt lat="43.49231" lon="6.77175">
        <ele>99.400001525879</ele>
        <time>2017-03-10T09:16:59.000Z</time>
      </trkpt>
      <trkpt lat="43.49242" lon="6.77202">
        <ele>100.80000305176</ele>
        <time>2017-03-10T09:17:06.000Z</time>
      </trkpt>
      <trkpt lat="43.49252" lon="6.77204">
        <ele>101.19999694824</ele>
        <time>2017-03-10T09:17:09.000Z</time>
      </trkpt>
      <trkpt lat="43.4927" lon="6.77198">
        <ele>101.59999847412</ele>
        <time>2017-03-10T09:17:13.000Z</time>
      </trkpt>
      <trkpt lat="43.49295" lon="6.7721">
        <ele>101.80000305176</ele>
        <time>2017-03-10T09:17:19.000Z</time>
      </trkpt>
      <trkpt lat="43.49302" lon="6.77218">
        <ele>101.80000305176</ele>
        <time>2017-03-10T09:17:21.000Z</time>
      </trkpt>
      <trkpt lat="43.49337" lon="6.77259">
        <ele>101.59999847412</ele>
        <time>2017-03-10T09:17:31.000Z</time>
      </trkpt>
      <trkpt lat="43.49344" lon="6.773">
        <ele>101.80000305176</ele>
        <time>2017-03-10T09:17:39.000Z</time>
      </trkpt>
      <trkpt lat="43.49346" lon="6.7732">
        <ele>102</ele>
        <time>2017-03-10T09:17:44.000Z</time>
      </trkpt>
      <trkpt lat="43.49347" lon="6.77343">
        <ele>103.40000152588</ele>
        <time>2017-03-10T09:17:50.000Z</time>
      </trkpt>
      <trkpt lat="43.49345" lon="6.7736">
        <ele>104.40000152588</ele>
        <time>2017-03-10T09:17:55.000Z</time>
      </trkpt>
      <trkpt lat="43.49338" lon="6.7738">
        <ele>105.59999847412</ele>
        <time>2017-03-10T09:18:02.000Z</time>
      </trkpt>
      <trkpt lat="43.4933" lon="6.77394">
        <ele>107</ele>
        <time>2017-03-10T09:18:08.000Z</time>
      </trkpt>
      <trkpt lat="43.49328" lon="6.77406">
        <ele>108</ele>
        <time>2017-03-10T09:18:12.000Z</time>
      </trkpt>
      <trkpt lat="43.49331" lon="6.77422">
        <ele>109</ele>
        <time>2017-03-10T09:18:17.000Z</time>
      </trkpt>
      <trkpt lat="43.49339" lon="6.77437">
        <ele>110.40000152588</ele>
        <time>2017-03-10T09:18:22.000Z</time>
      </trkpt>
      <trkpt lat="43.49346" lon="6.77447">
        <ele>110.80000305176</ele>
        <time>2017-03-10T09:18:26.000Z</time>
      </trkpt>
      <trkpt lat="43.49349" lon="6.77458">
        <ele>111.40000152588</ele>
        <time>2017-03-10T09:18:29.000Z</time>
      </trkpt>
      <trkpt lat="43.49348" lon="6.77487">
        <ele>112.59999847412</ele>
        <time>2017-03-10T09:18:36.000Z</time>
      </trkpt>
      <trkpt lat="43.49344" lon="6.77508">
        <ele>113.80000305176</ele>
        <time>2017-03-10T09:18:41.000Z</time>
      </trkpt>
      <trkpt lat="43.49342" lon="6.77528">
        <ele>114.80000305176</ele>
        <time>2017-03-10T09:18:46.000Z</time>
      </trkpt>
      <trkpt lat="43.49337" lon="6.77551">
        <ele>116.59999847412</ele>
        <time>2017-03-10T09:18:52.000Z</time>
      </trkpt>
      <trkpt lat="43.49334" lon="6.77576">
        <ele>118</ele>
        <time>2017-03-10T09:18:58.000Z</time>
      </trkpt>
      <trkpt lat="43.49333" lon="6.77601">
        <ele>119</ele>
        <time>2017-03-10T09:19:04.000Z</time>
      </trkpt>
      <trkpt lat="43.49335" lon="6.77618">
        <ele>120</ele>
        <time>2017-03-10T09:19:08.000Z</time>
      </trkpt>
      <trkpt lat="43.49334" lon="6.77639">
        <ele>121.40000152588</ele>
        <time>2017-03-10T09:19:13.000Z</time>
      </trkpt>
      <trkpt lat="43.49329" lon="6.7766">
        <ele>122.59999847412</ele>
        <time>2017-03-10T09:19:18.000Z</time>
      </trkpt>
      <trkpt lat="43.49324" lon="6.77671">
        <ele>123.80000305176</ele>
        <time>2017-03-10T09:19:21.000Z</time>
      </trkpt>
      <trkpt lat="43.49311" lon="6.77682">
        <ele>125</ele>
        <time>2017-03-10T09:19:26.000Z</time>
      </trkpt>
      <trkpt lat="43.49304" lon="6.77698">
        <ele>126.19999694824</ele>
        <time>2017-03-10T09:19:31.000Z</time>
      </trkpt>
      <trkpt lat="43.49309" lon="6.77716">
        <ele>127.40000152588</ele>
        <time>2017-03-10T09:19:36.000Z</time>
      </trkpt>
      <trkpt lat="43.49325" lon="6.7775">
        <ele>128.39999389648</ele>
        <time>2017-03-10T09:19:43.000Z</time>
      </trkpt>
      <trkpt lat="43.49363" lon="6.77765">
        <ele>128</ele>
        <time>2017-03-10T09:19:49.000Z</time>
      </trkpt>
      <trkpt lat="43.49379" lon="6.77766">
        <ele>126</ele>
        <time>2017-03-10T09:19:51.000Z</time>
      </trkpt>
      <trkpt lat="43.49386" lon="6.77768">
        <ele>125.59999847412</ele>
        <time>2017-03-10T09:19:52.000Z</time>
      </trkpt>
      <trkpt lat="43.49402" lon="6.77774">
        <ele>124.59999847412</ele>
        <time>2017-03-10T09:19:54.000Z</time>
      </trkpt>
      <trkpt lat="43.49416" lon="6.77774">
        <ele>122.80000305176</ele>
        <time>2017-03-10T09:19:56.000Z</time>
      </trkpt>
      <trkpt lat="43.49423" lon="6.77774">
        <ele>121.80000305176</ele>
        <time>2017-03-10T09:19:57.000Z</time>
      </trkpt>
      <trkpt lat="43.4943" lon="6.77775">
        <ele>121.19999694824</ele>
        <time>2017-03-10T09:19:58.000Z</time>
      </trkpt>
      <trkpt lat="43.49446" lon="6.77776">
        <ele>119.80000305176</ele>
        <time>2017-03-10T09:20:00.000Z</time>
      </trkpt>
      <trkpt lat="43.49478" lon="6.77774">
        <ele>118.59999847412</ele>
        <time>2017-03-10T09:20:04.000Z</time>
      </trkpt>
      <trkpt lat="43.49511" lon="6.7777">
        <ele>117</ele>
        <time>2017-03-10T09:20:08.000Z</time>
      </trkpt>
      <trkpt lat="43.49536" lon="6.77773">
        <ele>116</ele>
        <time>2017-03-10T09:20:11.000Z</time>
      </trkpt>
      <trkpt lat="43.49561" lon="6.77779">
        <ele>114.59999847412</ele>
        <time>2017-03-10T09:20:14.000Z</time>
      </trkpt>
      <trkpt lat="43.49569" lon="6.77782">
        <ele>114</ele>
        <time>2017-03-10T09:20:15.000Z</time>
      </trkpt>
      <trkpt lat="43.49577" lon="6.77785">
        <ele>113.59999847412</ele>
        <time>2017-03-10T09:20:16.000Z</time>
      </trkpt>
      <trkpt lat="43.49594" lon="6.7779">
        <ele>112.59999847412</ele>
        <time>2017-03-10T09:20:18.000Z</time>
      </trkpt>
      <trkpt lat="43.49602" lon="6.77789">
        <ele>112.40000152588</ele>
        <time>2017-03-10T09:20:19.000Z</time>
      </trkpt>
      <trkpt lat="43.49617" lon="6.77769">
        <ele>111.19999694824</ele>
        <time>2017-03-10T09:20:22.000Z</time>
      </trkpt>
      <trkpt lat="43.49646" lon="6.77751">
        <ele>110.40000152588</ele>
        <time>2017-03-10T09:20:27.000Z</time>
      </trkpt>
      <trkpt lat="43.49692" lon="6.77746">
        <ele>109.59999847412</ele>
        <time>2017-03-10T09:20:34.000Z</time>
      </trkpt>
      <trkpt lat="43.49711" lon="6.77751">
        <ele>109.19999694824</ele>
        <time>2017-03-10T09:20:37.000Z</time>
      </trkpt>
      <trkpt lat="43.49729" lon="6.77756">
        <ele>109.40000152588</ele>
        <time>2017-03-10T09:20:40.000Z</time>
      </trkpt>
      <trkpt lat="43.49783" lon="6.77745">
        <ele>109.40000152588</ele>
        <time>2017-03-10T09:20:49.000Z</time>
      </trkpt>
      <trkpt lat="43.49798" lon="6.77732">
        <ele>109.40000152588</ele>
        <time>2017-03-10T09:20:52.000Z</time>
      </trkpt>
      <trkpt lat="43.49814" lon="6.77703">
        <ele>109.59999847412</ele>
        <time>2017-03-10T09:20:56.000Z</time>
      </trkpt>
      <trkpt lat="43.49822" lon="6.77688">
        <ele>109.59999847412</ele>
        <time>2017-03-10T09:20:58.000Z</time>
      </trkpt>
      <trkpt lat="43.49842" lon="6.77664">
        <ele>108.40000152588</ele>
        <time>2017-03-10T09:21:02.000Z</time>
      </trkpt>
      <trkpt lat="43.49851" lon="6.77652">
        <ele>107.80000305176</ele>
        <time>2017-03-10T09:21:04.000Z</time>
      </trkpt>
      <trkpt lat="43.4986" lon="6.77642">
        <ele>107.19999694824</ele>
        <time>2017-03-10T09:21:06.000Z</time>
      </trkpt>
      <trkpt lat="43.49872" lon="6.77635">
        <ele>106.80000305176</ele>
        <time>2017-03-10T09:21:08.000Z</time>
      </trkpt>
      <trkpt lat="43.49884" lon="6.77626">
        <ele>106.59999847412</ele>
        <time>2017-03-10T09:21:10.000Z</time>
      </trkpt>
      <trkpt lat="43.49912" lon="6.77592">
        <ele>106.19999694824</ele>
        <time>2017-03-10T09:21:16.000Z</time>
      </trkpt>
      <trkpt lat="43.49918" lon="6.77591">
        <ele>106.40000152588</ele>
        <time>2017-03-10T09:21:17.000Z</time>
      </trkpt>
      <trkpt lat="43.49924" lon="6.77589">
        <ele>106.19999694824</ele>
        <time>2017-03-10T09:21:18.000Z</time>
      </trkpt>
      <trkpt lat="43.49935" lon="6.77583">
        <ele>105</ele>
        <time>2017-03-10T09:21:20.000Z</time>
      </trkpt>
      <trkpt lat="43.4994" lon="6.7758">
        <ele>104.80000305176</ele>
        <time>2017-03-10T09:21:21.000Z</time>
      </trkpt>
      <trkpt lat="43.49957" lon="6.77577">
        <ele>104.59999847412</ele>
        <time>2017-03-10T09:21:24.000Z</time>
      </trkpt>
      <trkpt lat="43.49995" lon="6.77583">
        <ele>104.40000152588</ele>
        <time>2017-03-10T09:21:30.000Z</time>
      </trkpt>
      <trkpt lat="43.50001" lon="6.77583">
        <ele>104.19999694824</ele>
        <time>2017-03-10T09:21:31.000Z</time>
      </trkpt>
      <trkpt lat="43.50007" lon="6.77582">
        <ele>104</ele>
        <time>2017-03-10T09:21:32.000Z</time>
      </trkpt>
      <trkpt lat="43.50032" lon="6.77579">
        <ele>103.59999847412</ele>
        <time>2017-03-10T09:21:36.000Z</time>
      </trkpt>
      <trkpt lat="43.50044" lon="6.77577">
        <ele>103.40000152588</ele>
        <time>2017-03-10T09:21:38.000Z</time>
      </trkpt>
      <trkpt lat="43.50054" lon="6.77569">
        <ele>103</ele>
        <time>2017-03-10T09:21:40.000Z</time>
      </trkpt>
      <trkpt lat="43.50076" lon="6.77555">
        <ele>102.59999847412</ele>
        <time>2017-03-10T09:21:44.000Z</time>
      </trkpt>
      <trkpt lat="43.50082" lon="6.77552">
        <ele>102.40000152588</ele>
        <time>2017-03-10T09:21:45.000Z</time>
      </trkpt>
      <trkpt lat="43.50122" lon="6.77515">
        <ele>102.40000152588</ele>
        <time>2017-03-10T09:21:53.000Z</time>
      </trkpt>
      <trkpt lat="43.50145" lon="6.77506">
        <ele>102</ele>
        <time>2017-03-10T09:21:57.000Z</time>
      </trkpt>
      <trkpt lat="43.50176" lon="6.77504">
        <ele>101.19999694824</ele>
        <time>2017-03-10T09:22:02.000Z</time>
      </trkpt>
      <trkpt lat="43.50188" lon="6.77507">
        <ele>101</ele>
        <time>2017-03-10T09:22:04.000Z</time>
      </trkpt>
      <trkpt lat="43.50228" lon="6.77512">
        <ele>100.59999847412</ele>
        <time>2017-03-10T09:22:11.000Z</time>
      </trkpt>
      <trkpt lat="43.50268" lon="6.77523">
        <ele>100.19999694824</ele>
        <time>2017-03-10T09:22:18.000Z</time>
      </trkpt>
      <trkpt lat="43.50279" lon="6.77527">
        <ele>100</ele>
        <time>2017-03-10T09:22:20.000Z</time>
      </trkpt>
      <trkpt lat="43.50306" lon="6.77544">
        <ele>99.800003051758</ele>
        <time>2017-03-10T09:22:25.000Z</time>
      </trkpt>
      <trkpt lat="43.50335" lon="6.7755">
        <ele>99.199996948242</ele>
        <time>2017-03-10T09:22:30.000Z</time>
      </trkpt>
      <trkpt lat="43.50376" lon="6.77557">
        <ele>98.800003051758</ele>
        <time>2017-03-10T09:22:37.000Z</time>
      </trkpt>
      <trkpt lat="43.50387" lon="6.77562">
        <ele>98.800003051758</ele>
        <time>2017-03-10T09:22:39.000Z</time>
      </trkpt>
      <trkpt lat="43.50413" lon="6.77578">
        <ele>98.199996948242</ele>
        <time>2017-03-10T09:22:44.000Z</time>
      </trkpt>
      <trkpt lat="43.50429" lon="6.77588">
        <ele>98</ele>
        <time>2017-03-10T09:22:47.000Z</time>
      </trkpt>
      <trkpt lat="43.50441" lon="6.77595">
        <ele>98</ele>
        <time>2017-03-10T09:22:49.000Z</time>
      </trkpt>
      <trkpt lat="43.50459" lon="6.77601">
        <ele>97.800003051758</ele>
        <time>2017-03-10T09:22:52.000Z</time>
      </trkpt>
      <trkpt lat="43.5048" lon="6.77612">
        <ele>97.400001525879</ele>
        <time>2017-03-10T09:22:56.000Z</time>
      </trkpt>
      <trkpt lat="43.50511" lon="6.7758">
        <ele>97.400001525879</ele>
        <time>2017-03-10T09:23:05.000Z</time>
      </trkpt>
      <trkpt lat="43.50514" lon="6.77569">
        <ele>97.800003051758</ele>
        <time>2017-03-10T09:23:07.000Z</time>
      </trkpt>
      <trkpt lat="43.50523" lon="6.77557">
        <ele>98.599998474121</ele>
        <time>2017-03-10T09:23:10.000Z</time>
      </trkpt>
      <trkpt lat="43.50537" lon="6.77537">
        <ele>99.800003051758</ele>
        <time>2017-03-10T09:23:16.000Z</time>
      </trkpt>
      <trkpt lat="43.50536" lon="6.77528">
        <ele>100.19999694824</ele>
        <time>2017-03-10T09:23:18.000Z</time>
      </trkpt>
      <trkpt lat="43.50534" lon="6.77513">
        <ele>101.40000152588</ele>
        <time>2017-03-10T09:23:21.000Z</time>
      </trkpt>
      <trkpt lat="43.50545" lon="6.77488">
        <ele>102.40000152588</ele>
        <time>2017-03-10T09:23:27.000Z</time>
      </trkpt>
      <trkpt lat="43.5056" lon="6.77467">
        <ele>103.80000305176</ele>
        <time>2017-03-10T09:23:33.000Z</time>
      </trkpt>
      <trkpt lat="43.5058" lon="6.77459">
        <ele>104.80000305176</ele>
        <time>2017-03-10T09:23:39.000Z</time>
      </trkpt>
      <trkpt lat="43.50596" lon="6.77456">
        <ele>106</ele>
        <time>2017-03-10T09:23:44.000Z</time>
      </trkpt>
      <trkpt lat="43.50603" lon="6.77439">
        <ele>107</ele>
        <time>2017-03-10T09:23:48.000Z</time>
      </trkpt>
      <trkpt lat="43.50609" lon="6.77426">
        <ele>108.19999694824</ele>
        <time>2017-03-10T09:23:51.000Z</time>
      </trkpt>
      <trkpt lat="43.50625" lon="6.7741">
        <ele>109</ele>
        <time>2017-03-10T09:23:56.000Z</time>
      </trkpt>
      <trkpt lat="43.50637" lon="6.7741">
        <ele>109.40000152588</ele>
        <time>2017-03-10T09:23:59.000Z</time>
      </trkpt>
      <trkpt lat="43.50652" lon="6.77422">
        <ele>110</ele>
        <time>2017-03-10T09:24:04.000Z</time>
      </trkpt>
      <trkpt lat="43.50657" lon="6.77433">
        <ele>110.59999847412</ele>
        <time>2017-03-10T09:24:07.000Z</time>
      </trkpt>
      <trkpt lat="43.50662" lon="6.77448">
        <ele>111.80000305176</ele>
        <time>2017-03-10T09:24:11.000Z</time>
      </trkpt>
      <trkpt lat="43.50673" lon="6.77461">
        <ele>113</ele>
        <time>2017-03-10T09:24:16.000Z</time>
      </trkpt>
      <trkpt lat="43.50688" lon="6.77467">
        <ele>114.19999694824</ele>
        <time>2017-03-10T09:24:21.000Z</time>
      </trkpt>
      <trkpt lat="43.50702" lon="6.77472">
        <ele>115.19999694824</ele>
        <time>2017-03-10T09:24:27.000Z</time>
      </trkpt>
      <trkpt lat="43.50705" lon="6.77489">
        <ele>115.59999847412</ele>
        <time>2017-03-10T09:24:32.000Z</time>
      </trkpt>
      <trkpt lat="43.50704" lon="6.77497">
        <ele>116</ele>
        <time>2017-03-10T09:24:34.000Z</time>
      </trkpt>
      <trkpt lat="43.50703" lon="6.77513">
        <ele>116.59999847412</ele>
        <time>2017-03-10T09:24:38.000Z</time>
      </trkpt>
      <trkpt lat="43.50697" lon="6.77547">
        <ele>117.80000305176</ele>
        <time>2017-03-10T09:24:46.000Z</time>
      </trkpt>
      <trkpt lat="43.50691" lon="6.77573">
        <ele>118.80000305176</ele>
        <time>2017-03-10T09:24:52.000Z</time>
      </trkpt>
      <trkpt lat="43.50692" lon="6.77606">
        <ele>120</ele>
        <time>2017-03-10T09:24:59.000Z</time>
      </trkpt>
      <trkpt lat="43.50698" lon="6.77619">
        <ele>121</ele>
        <time>2017-03-10T09:25:02.000Z</time>
      </trkpt>
      <trkpt lat="43.50708" lon="6.77637">
        <ele>122.19999694824</ele>
        <time>2017-03-10T09:25:07.000Z</time>
      </trkpt>
      <trkpt lat="43.50721" lon="6.77655">
        <ele>123.40000152588</ele>
        <time>2017-03-10T09:25:13.000Z</time>
      </trkpt>
      <trkpt lat="43.50731" lon="6.77659">
        <ele>124.59999847412</ele>
        <time>2017-03-10T09:25:17.000Z</time>
      </trkpt>
      <trkpt lat="43.50742" lon="6.77665">
        <ele>126</ele>
        <time>2017-03-10T09:25:21.000Z</time>
      </trkpt>
      <trkpt lat="43.5075" lon="6.77671">
        <ele>127.19999694824</ele>
        <time>2017-03-10T09:25:24.000Z</time>
      </trkpt>
      <trkpt lat="43.50758" lon="6.77677">
        <ele>128.39999389648</ele>
        <time>2017-03-10T09:25:27.000Z</time>
      </trkpt>
      <trkpt lat="43.5077" lon="6.77699">
        <ele>129.39999389648</ele>
        <time>2017-03-10T09:25:33.000Z</time>
      </trkpt>
      <trkpt lat="43.5075" lon="6.77744">
        <ele>130.80000305176</ele>
        <time>2017-03-10T09:25:47.000Z</time>
      </trkpt>
      <trkpt lat="43.50743" lon="6.77752">
        <ele>132.19999694824</ele>
        <time>2017-03-10T09:25:51.000Z</time>
      </trkpt>
      <trkpt lat="43.50736" lon="6.77761">
        <ele>133.39999389648</ele>
        <time>2017-03-10T09:25:56.000Z</time>
      </trkpt>
      <trkpt lat="43.50732" lon="6.77764">
        <ele>134.19999694824</ele>
        <time>2017-03-10T09:25:59.000Z</time>
      </trkpt>
      <trkpt lat="43.5073" lon="6.77769">
        <ele>134.80000305176</ele>
        <time>2017-03-10T09:26:01.000Z</time>
      </trkpt>
      <trkpt lat="43.50729" lon="6.77783">
        <ele>136</ele>
        <time>2017-03-10T09:26:05.000Z</time>
      </trkpt>
      <trkpt lat="43.50734" lon="6.77794">
        <ele>137</ele>
        <time>2017-03-10T09:26:09.000Z</time>
      </trkpt>
      <trkpt lat="43.50739" lon="6.77802">
        <ele>138</ele>
        <time>2017-03-10T09:26:12.000Z</time>
      </trkpt>
      <trkpt lat="43.50747" lon="6.77806">
        <ele>139.39999389648</ele>
        <time>2017-03-10T09:26:15.000Z</time>
      </trkpt>
      <trkpt lat="43.50753" lon="6.77807">
        <ele>139.80000305176</ele>
        <time>2017-03-10T09:26:17.000Z</time>
      </trkpt>
      <trkpt lat="43.50772" lon="6.77814">
        <ele>140.60000610352</ele>
        <time>2017-03-10T09:26:25.000Z</time>
      </trkpt>
      <trkpt lat="43.50782" lon="6.7782">
        <ele>141.80000305176</ele>
        <time>2017-03-10T09:26:30.000Z</time>
      </trkpt>
      <trkpt lat="43.50797" lon="6.77827">
        <ele>143.19999694824</ele>
        <time>2017-03-10T09:26:35.000Z</time>
      </trkpt>
      <trkpt lat="43.50812" lon="6.77829">
        <ele>144.39999389648</ele>
        <time>2017-03-10T09:26:39.000Z</time>
      </trkpt>
      <trkpt lat="43.50839" lon="6.77832">
        <ele>145.60000610352</ele>
        <time>2017-03-10T09:26:44.000Z</time>
      </trkpt>
      <trkpt lat="43.50855" lon="6.77836">
        <ele>146.60000610352</ele>
        <time>2017-03-10T09:26:47.000Z</time>
      </trkpt>
      <trkpt lat="43.50877" lon="6.7784">
        <ele>147.80000305176</ele>
        <time>2017-03-10T09:26:51.000Z</time>
      </trkpt>
      <trkpt lat="43.509" lon="6.77843">
        <ele>149</ele>
        <time>2017-03-10T09:26:55.000Z</time>
      </trkpt>
      <trkpt lat="43.5091" lon="6.77846">
        <ele>150.19999694824</ele>
        <time>2017-03-10T09:26:57.000Z</time>
      </trkpt>
      <trkpt lat="43.50924" lon="6.77849">
        <ele>151.60000610352</ele>
        <time>2017-03-10T09:27:00.000Z</time>
      </trkpt>
      <trkpt lat="43.50941" lon="6.77856">
        <ele>152.80000305176</ele>
        <time>2017-03-10T09:27:04.000Z</time>
      </trkpt>
      <trkpt lat="43.50949" lon="6.77861">
        <ele>154</ele>
        <time>2017-03-10T09:27:06.000Z</time>
      </trkpt>
      <trkpt lat="43.50956" lon="6.77866">
        <ele>155.19999694824</ele>
        <time>2017-03-10T09:27:08.000Z</time>
      </trkpt>
      <trkpt lat="43.50965" lon="6.7787">
        <ele>155.80000305176</ele>
        <time>2017-03-10T09:27:10.000Z</time>
      </trkpt>
      <trkpt lat="43.50973" lon="6.77872">
        <ele>156.39999389648</ele>
        <time>2017-03-10T09:27:12.000Z</time>
      </trkpt>
      <trkpt lat="43.50987" lon="6.77869">
        <ele>157.39999389648</ele>
        <time>2017-03-10T09:27:15.000Z</time>
      </trkpt>
      <trkpt lat="43.51005" lon="6.77865">
        <ele>158.80000305176</ele>
        <time>2017-03-10T09:27:19.000Z</time>
      </trkpt>
      <trkpt lat="43.51018" lon="6.7786">
        <ele>160</ele>
        <time>2017-03-10T09:27:22.000Z</time>
      </trkpt>
      <trkpt lat="43.51031" lon="6.77856">
        <ele>161</ele>
        <time>2017-03-10T09:27:25.000Z</time>
      </trkpt>
      <trkpt lat="43.51044" lon="6.77852">
        <ele>162.39999389648</ele>
        <time>2017-03-10T09:27:28.000Z</time>
      </trkpt>
      <trkpt lat="43.51057" lon="6.77851">
        <ele>163.80000305176</ele>
        <time>2017-03-10T09:27:31.000Z</time>
      </trkpt>
      <trkpt lat="43.51071" lon="6.7785">
        <ele>165.19999694824</ele>
        <time>2017-03-10T09:27:34.000Z</time>
      </trkpt>
      <trkpt lat="43.51084" lon="6.7785">
        <ele>166</ele>
        <time>2017-03-10T09:27:37.000Z</time>
      </trkpt>
      <trkpt lat="43.51089" lon="6.77849">
        <ele>166.39999389648</ele>
        <time>2017-03-10T09:27:38.000Z</time>
      </trkpt>
      <trkpt lat="43.51101" lon="6.77853">
        <ele>167.60000610352</ele>
        <time>2017-03-10T09:27:41.000Z</time>
      </trkpt>
      <trkpt lat="43.51105" lon="6.77855">
        <ele>168</ele>
        <time>2017-03-10T09:27:42.000Z</time>
      </trkpt>
      <trkpt lat="43.51113" lon="6.77859">
        <ele>168.80000305176</ele>
        <time>2017-03-10T09:27:44.000Z</time>
      </trkpt>
      <trkpt lat="43.51126" lon="6.77871">
        <ele>169.80000305176</ele>
        <time>2017-03-10T09:27:48.000Z</time>
      </trkpt>
      <trkpt lat="43.51133" lon="6.77884">
        <ele>171.19999694824</ele>
        <time>2017-03-10T09:27:51.000Z</time>
      </trkpt>
      <trkpt lat="43.5113" lon="6.77902">
        <ele>172.19999694824</ele>
        <time>2017-03-10T09:27:54.000Z</time>
      </trkpt>
      <trkpt lat="43.51127" lon="6.77913">
        <ele>173</ele>
        <time>2017-03-10T09:27:56.000Z</time>
      </trkpt>
      <trkpt lat="43.51125" lon="6.77919">
        <ele>173.60000610352</ele>
        <time>2017-03-10T09:27:57.000Z</time>
      </trkpt>
      <trkpt lat="43.51121" lon="6.77936">
        <ele>174.60000610352</ele>
        <time>2017-03-10T09:28:00.000Z</time>
      </trkpt>
      <trkpt lat="43.51112" lon="6.77976">
        <ele>175.80000305176</ele>
        <time>2017-03-10T09:28:07.000Z</time>
      </trkpt>
      <trkpt lat="43.51111" lon="6.78">
        <ele>176.80000305176</ele>
        <time>2017-03-10T09:28:11.000Z</time>
      </trkpt>
      <trkpt lat="43.51109" lon="6.78019">
        <ele>177.60000610352</ele>
        <time>2017-03-10T09:28:14.000Z</time>
      </trkpt>
      <trkpt lat="43.51108" lon="6.78025">
        <ele>178</ele>
        <time>2017-03-10T09:28:15.000Z</time>
      </trkpt>
      <trkpt lat="43.51099" lon="6.78061">
        <ele>179.19999694824</ele>
        <time>2017-03-10T09:28:21.000Z</time>
      </trkpt>
      <trkpt lat="43.51083" lon="6.78137">
        <ele>179.80000305176</ele>
        <time>2017-03-10T09:28:32.000Z</time>
      </trkpt>
      <trkpt lat="43.51081" lon="6.78151">
        <ele>180</ele>
        <time>2017-03-10T09:28:34.000Z</time>
      </trkpt>
      <trkpt lat="43.51059" lon="6.78188">
        <ele>180</ele>
        <time>2017-03-10T09:28:41.000Z</time>
      </trkpt>
      <trkpt lat="43.5104" lon="6.78199">
        <ele>180</ele>
        <time>2017-03-10T09:28:45.000Z</time>
      </trkpt>
      <trkpt lat="43.51026" lon="6.78203">
        <ele>180.19999694824</ele>
        <time>2017-03-10T09:28:48.000Z</time>
      </trkpt>
      <trkpt lat="43.50998" lon="6.78213">
        <ele>181.39999389648</ele>
        <time>2017-03-10T09:28:55.000Z</time>
      </trkpt>
      <trkpt lat="43.50976" lon="6.78228">
        <ele>182.60000610352</ele>
        <time>2017-03-10T09:29:01.000Z</time>
      </trkpt>
      <trkpt lat="43.5096" lon="6.78238">
        <ele>183.80000305176</ele>
        <time>2017-03-10T09:29:05.000Z</time>
      </trkpt>
      <trkpt lat="43.50941" lon="6.78254">
        <ele>184.19999694824</ele>
        <time>2017-03-10T09:29:10.000Z</time>
      </trkpt>
      <trkpt lat="43.50929" lon="6.78277">
        <ele>184.80000305176</ele>
        <time>2017-03-10T09:29:15.000Z</time>
      </trkpt>
      <trkpt lat="43.50923" lon="6.78285">
        <ele>185.19999694824</ele>
        <time>2017-03-10T09:29:17.000Z</time>
      </trkpt>
      <trkpt lat="43.50913" lon="6.78297">
        <ele>185.80000305176</ele>
        <time>2017-03-10T09:29:20.000Z</time>
      </trkpt>
      <trkpt lat="43.50909" lon="6.78301">
        <ele>186</ele>
        <time>2017-03-10T09:29:21.000Z</time>
      </trkpt>
      <trkpt lat="43.50892" lon="6.78324">
        <ele>187</ele>
        <time>2017-03-10T09:29:27.000Z</time>
      </trkpt>
      <trkpt lat="43.50881" lon="6.78343">
        <ele>188.19999694824</ele>
        <time>2017-03-10T09:29:32.000Z</time>
      </trkpt>
      <trkpt lat="43.50868" lon="6.78362">
        <ele>189.39999389648</ele>
        <time>2017-03-10T09:29:37.000Z</time>
      </trkpt>
      <trkpt lat="43.5086" lon="6.78388">
        <ele>190.60000610352</ele>
        <time>2017-03-10T09:29:43.000Z</time>
      </trkpt>
      <trkpt lat="43.5087" lon="6.78412">
        <ele>191.80000305176</ele>
        <time>2017-03-10T09:29:49.000Z</time>
      </trkpt>
      <trkpt lat="43.50879" lon="6.78428">
        <ele>192.80000305176</ele>
        <time>2017-03-10T09:29:53.000Z</time>
      </trkpt>
      <trkpt lat="43.50894" lon="6.78452">
        <ele>194.19999694824</ele>
        <time>2017-03-10T09:29:59.000Z</time>
      </trkpt>
      <trkpt lat="43.50918" lon="6.78484">
        <ele>195.39999389648</ele>
        <time>2017-03-10T09:30:08.000Z</time>
      </trkpt>
      <trkpt lat="43.5093" lon="6.78512">
        <ele>196.60000610352</ele>
        <time>2017-03-10T09:30:15.000Z</time>
      </trkpt>
      <trkpt lat="43.50926" lon="6.78523">
        <ele>197.80000305176</ele>
        <time>2017-03-10T09:30:18.000Z</time>
      </trkpt>
      <trkpt lat="43.50913" lon="6.78531">
        <ele>198.80000305176</ele>
        <time>2017-03-10T09:30:22.000Z</time>
      </trkpt>
      <trkpt lat="43.50902" lon="6.78535">
        <ele>199.80000305176</ele>
        <time>2017-03-10T09:30:25.000Z</time>
      </trkpt>
      <trkpt lat="43.50898" lon="6.78536">
        <ele>200</ele>
        <time>2017-03-10T09:30:26.000Z</time>
      </trkpt>
      <trkpt lat="43.50885" lon="6.7854">
        <ele>200.60000610352</ele>
        <time>2017-03-10T09:30:29.000Z</time>
      </trkpt>
      <trkpt lat="43.50872" lon="6.78547">
        <ele>200.80000305176</ele>
        <time>2017-03-10T09:30:32.000Z</time>
      </trkpt>
      <trkpt lat="43.50824" lon="6.78561">
        <ele>201.39999389648</ele>
        <time>2017-03-10T09:30:44.000Z</time>
      </trkpt>
      <trkpt lat="43.50804" lon="6.78576">
        <ele>186.39999389648</ele>
        <time>2017-03-10T09:30:50.000Z</time>
      </trkpt>
      <trkpt lat="43.50767" lon="6.78609">
        <ele>203.60000610352</ele>
        <time>2017-03-10T09:31:02.000Z</time>
      </trkpt>
      <trkpt lat="43.50736" lon="6.78609">
        <ele>204.60000610352</ele>
        <time>2017-03-10T09:31:10.000Z</time>
      </trkpt>
      <trkpt lat="43.50724" lon="6.786">
        <ele>205</ele>
        <time>2017-03-10T09:31:14.000Z</time>
      </trkpt>
      <trkpt lat="43.50707" lon="6.7859">
        <ele>205.80000305176</ele>
        <time>2017-03-10T09:31:20.000Z</time>
      </trkpt>
      <trkpt lat="43.50703" lon="6.78591">
        <ele>206</ele>
        <time>2017-03-10T09:31:21.000Z</time>
      </trkpt>
      <trkpt lat="43.50656" lon="6.78587">
        <ele>206.80000305176</ele>
        <time>2017-03-10T09:31:33.000Z</time>
      </trkpt>
      <trkpt lat="43.50609" lon="6.78588">
        <ele>208</ele>
        <time>2017-03-10T09:31:45.000Z</time>
      </trkpt>
      <trkpt lat="43.50594" lon="6.78579">
        <ele>208.60000610352</ele>
        <time>2017-03-10T09:31:49.000Z</time>
      </trkpt>
      <trkpt lat="43.50574" lon="6.78563">
        <ele>208.60000610352</ele>
        <time>2017-03-10T09:31:54.000Z</time>
      </trkpt>
      <trkpt lat="43.50557" lon="6.78553">
        <ele>208.60000610352</ele>
        <time>2017-03-10T09:31:58.000Z</time>
      </trkpt>
      <trkpt lat="43.50548" lon="6.78579">
        <ele>208.80000305176</ele>
        <time>2017-03-10T09:32:04.000Z</time>
      </trkpt>
      <trkpt lat="43.5055" lon="6.78602">
        <ele>209</ele>
        <time>2017-03-10T09:32:07.000Z</time>
      </trkpt>
      <trkpt lat="43.50553" lon="6.78617">
        <ele>209.39999389648</ele>
        <time>2017-03-10T09:32:09.000Z</time>
      </trkpt>
      <trkpt lat="43.50555" lon="6.78625">
        <ele>209.60000610352</ele>
        <time>2017-03-10T09:32:10.000Z</time>
      </trkpt>
      <trkpt lat="43.50574" lon="6.78674">
        <ele>210.39999389648</ele>
        <time>2017-03-10T09:32:17.000Z</time>
      </trkpt>
      <trkpt lat="43.50576" lon="6.78681">
        <ele>210.39999389648</ele>
        <time>2017-03-10T09:32:18.000Z</time>
      </trkpt>
      <trkpt lat="43.5058" lon="6.78713">
        <ele>210.80000305176</ele>
        <time>2017-03-10T09:32:22.000Z</time>
      </trkpt>
      <trkpt lat="43.50578" lon="6.78729">
        <ele>211.39999389648</ele>
        <time>2017-03-10T09:32:24.000Z</time>
      </trkpt>
      <trkpt lat="43.50577" lon="6.78737">
        <ele>211.60000610352</ele>
        <time>2017-03-10T09:32:25.000Z</time>
      </trkpt>
      <trkpt lat="43.5057" lon="6.78764">
        <ele>212</ele>
        <time>2017-03-10T09:32:29.000Z</time>
      </trkpt>
      <trkpt lat="43.50551" lon="6.78789">
        <ele>213</ele>
        <time>2017-03-10T09:32:34.000Z</time>
      </trkpt>
      <trkpt lat="43.5054" lon="6.78811">
        <ele>214.19999694824</ele>
        <time>2017-03-10T09:32:38.000Z</time>
      </trkpt>
      <trkpt lat="43.50538" lon="6.78822">
        <ele>214.60000610352</ele>
        <time>2017-03-10T09:32:40.000Z</time>
      </trkpt>
      <trkpt lat="43.50532" lon="6.78855">
        <ele>215.39999389648</ele>
        <time>2017-03-10T09:32:45.000Z</time>
      </trkpt>
      <trkpt lat="43.50534" lon="6.78867">
        <ele>216.80000305176</ele>
        <time>2017-03-10T09:32:47.000Z</time>
      </trkpt>
      <trkpt lat="43.50539" lon="6.78878">
        <ele>217.39999389648</ele>
        <time>2017-03-10T09:32:49.000Z</time>
      </trkpt>
      <trkpt lat="43.50554" lon="6.78892">
        <ele>218</ele>
        <time>2017-03-10T09:32:53.000Z</time>
      </trkpt>
      <trkpt lat="43.50564" lon="6.78903">
        <ele>218.39999389648</ele>
        <time>2017-03-10T09:32:56.000Z</time>
      </trkpt>
      <trkpt lat="43.5057" lon="6.78912">
        <ele>219</ele>
        <time>2017-03-10T09:32:58.000Z</time>
      </trkpt>
      <trkpt lat="43.50573" lon="6.7893">
        <ele>220.19999694824</ele>
        <time>2017-03-10T09:33:01.000Z</time>
      </trkpt>
      <trkpt lat="43.5057" lon="6.78953">
        <ele>221</ele>
        <time>2017-03-10T09:33:05.000Z</time>
      </trkpt>
      <trkpt lat="43.50569" lon="6.78959">
        <ele>221.39999389648</ele>
        <time>2017-03-10T09:33:06.000Z</time>
      </trkpt>
      <trkpt lat="43.50561" lon="6.78991">
        <ele>222.39999389648</ele>
        <time>2017-03-10T09:33:12.000Z</time>
      </trkpt>
      <trkpt lat="43.50553" lon="6.79012">
        <ele>224</ele>
        <time>2017-03-10T09:33:16.000Z</time>
      </trkpt>
      <trkpt lat="43.50537" lon="6.79045">
        <ele>225.19999694824</ele>
        <time>2017-03-10T09:33:23.000Z</time>
      </trkpt>
      <trkpt lat="43.50521" lon="6.79074">
        <ele>226.39999389648</ele>
        <time>2017-03-10T09:33:30.000Z</time>
      </trkpt>
      <trkpt lat="43.50518" lon="6.79077">
        <ele>226.60000610352</ele>
        <time>2017-03-10T09:33:31.000Z</time>
      </trkpt>
      <trkpt lat="43.50503" lon="6.79081">
        <ele>227.39999389648</ele>
        <time>2017-03-10T09:33:35.000Z</time>
      </trkpt>
      <trkpt lat="43.50492" lon="6.79075">
        <ele>227.60000610352</ele>
        <time>2017-03-10T09:33:38.000Z</time>
      </trkpt>
      <trkpt lat="43.50461" lon="6.7906">
        <ele>228.80000305176</ele>
        <time>2017-03-10T09:33:47.000Z</time>
      </trkpt>
      <trkpt lat="43.50442" lon="6.79055">
        <ele>230</ele>
        <time>2017-03-10T09:33:53.000Z</time>
      </trkpt>
      <trkpt lat="43.50427" lon="6.79046">
        <ele>231.19999694824</ele>
        <time>2017-03-10T09:33:58.000Z</time>
      </trkpt>
      <trkpt lat="43.50424" lon="6.79046">
        <ele>231.80000305176</ele>
        <time>2017-03-10T09:33:59.000Z</time>
      </trkpt>
      <trkpt lat="43.5042" lon="6.79048">
        <ele>232.19999694824</ele>
        <time>2017-03-10T09:34:00.000Z</time>
      </trkpt>
      <trkpt lat="43.50418" lon="6.79069">
        <ele>232.80000305176</ele>
        <time>2017-03-10T09:34:04.000Z</time>
      </trkpt>
      <trkpt lat="43.50421" lon="6.79093">
        <ele>233</ele>
        <time>2017-03-10T09:34:08.000Z</time>
      </trkpt>
      <trkpt lat="43.5042" lon="6.79105">
        <ele>233.39999389648</ele>
        <time>2017-03-10T09:34:10.000Z</time>
      </trkpt>
      <trkpt lat="43.50417" lon="6.79116">
        <ele>234</ele>
        <time>2017-03-10T09:34:12.000Z</time>
      </trkpt>
      <trkpt lat="43.50412" lon="6.79128">
        <ele>234.39999389648</ele>
        <time>2017-03-10T09:34:14.000Z</time>
      </trkpt>
      <trkpt lat="43.50408" lon="6.79134">
        <ele>235.19999694824</ele>
        <time>2017-03-10T09:34:15.000Z</time>
      </trkpt>
      <trkpt lat="43.50386" lon="6.79167">
        <ele>236</ele>
        <time>2017-03-10T09:34:21.000Z</time>
      </trkpt>
      <trkpt lat="43.50383" lon="6.79172">
        <ele>236.19999694824</ele>
        <time>2017-03-10T09:34:22.000Z</time>
      </trkpt>
      <trkpt lat="43.50382" lon="6.79196">
        <ele>236.80000305176</ele>
        <time>2017-03-10T09:34:26.000Z</time>
      </trkpt>
      <trkpt lat="43.50383" lon="6.79208">
        <ele>237.19999694824</ele>
        <time>2017-03-10T09:34:28.000Z</time>
      </trkpt>
      <trkpt lat="43.50378" lon="6.79224">
        <ele>238.39999389648</ele>
        <time>2017-03-10T09:34:31.000Z</time>
      </trkpt>
      <trkpt lat="43.50371" lon="6.79234">
        <ele>238.80000305176</ele>
        <time>2017-03-10T09:34:33.000Z</time>
      </trkpt>
      <trkpt lat="43.5036" lon="6.79248">
        <ele>239.39999389648</ele>
        <time>2017-03-10T09:34:36.000Z</time>
      </trkpt>
      <trkpt lat="43.50337" lon="6.79276">
        <ele>240.39999389648</ele>
        <time>2017-03-10T09:34:42.000Z</time>
      </trkpt>
      <trkpt lat="43.50314" lon="6.79284">
        <ele>241.60000610352</ele>
        <time>2017-03-10T09:34:47.000Z</time>
      </trkpt>
      <trkpt lat="43.50301" lon="6.79285">
        <ele>242.39999389648</ele>
        <time>2017-03-10T09:34:50.000Z</time>
      </trkpt>
      <trkpt lat="43.50293" lon="6.79282">
        <ele>242.80000305176</ele>
        <time>2017-03-10T09:34:52.000Z</time>
      </trkpt>
      <trkpt lat="43.5028" lon="6.79274">
        <ele>243.39999389648</ele>
        <time>2017-03-10T09:34:55.000Z</time>
      </trkpt>
      <trkpt lat="43.50275" lon="6.79272">
        <ele>243.60000610352</ele>
        <time>2017-03-10T09:34:56.000Z</time>
      </trkpt>
      <trkpt lat="43.50271" lon="6.79271">
        <ele>243.80000305176</ele>
        <time>2017-03-10T09:34:57.000Z</time>
      </trkpt>
      <trkpt lat="43.5025" lon="6.7928">
        <ele>245.19999694824</ele>
        <time>2017-03-10T09:35:02.000Z</time>
      </trkpt>
      <trkpt lat="43.50245" lon="6.7929">
        <ele>245.80000305176</ele>
        <time>2017-03-10T09:35:04.000Z</time>
      </trkpt>
      <trkpt lat="43.50242" lon="6.79296">
        <ele>246</ele>
        <time>2017-03-10T09:35:05.000Z</time>
      </trkpt>
      <trkpt lat="43.50238" lon="6.793">
        <ele>246.19999694824</ele>
        <time>2017-03-10T09:35:06.000Z</time>
      </trkpt>
      <trkpt lat="43.50225" lon="6.79308">
        <ele>246.80000305176</ele>
        <time>2017-03-10T09:35:09.000Z</time>
      </trkpt>
      <trkpt lat="43.50214" lon="6.79314">
        <ele>247.39999389648</ele>
        <time>2017-03-10T09:35:12.000Z</time>
      </trkpt>
      <trkpt lat="43.50212" lon="6.79318">
        <ele>247.60000610352</ele>
        <time>2017-03-10T09:35:13.000Z</time>
      </trkpt>
      <trkpt lat="43.50214" lon="6.7933">
        <ele>248.60000610352</ele>
        <time>2017-03-10T09:35:16.000Z</time>
      </trkpt>
      <trkpt lat="43.50216" lon="6.79334">
        <ele>249</ele>
        <time>2017-03-10T09:35:17.000Z</time>
      </trkpt>
      <trkpt lat="43.50218" lon="6.79338">
        <ele>250</ele>
        <time>2017-03-10T09:35:19.000Z</time>
      </trkpt>
      <trkpt lat="43.50218" lon="6.79338">
        <ele>251.19999694824</ele>
        <time>2017-03-10T09:35:22.000Z</time>
      </trkpt>
      <trkpt lat="43.5022" lon="6.79343">
        <ele>251</ele>
        <time>2017-03-10T09:37:22.000Z</time>
      </trkpt>
      <trkpt lat="43.50222" lon="6.79352">
        <ele>251</ele>
        <time>2017-03-10T09:37:24.000Z</time>
      </trkpt>
      <trkpt lat="43.50212" lon="6.79389">
        <ele>251</ele>
        <time>2017-03-10T09:37:29.000Z</time>
      </trkpt>
      <trkpt lat="43.50208" lon="6.79397">
        <ele>251</ele>
        <time>2017-03-10T09:37:30.000Z</time>
      </trkpt>
      <trkpt lat="43.50214" lon="6.79436">
        <ele>250.19999694824</ele>
        <time>2017-03-10T09:37:34.000Z</time>
      </trkpt>
      <trkpt lat="43.50217" lon="6.79447">
        <ele>249.60000610352</ele>
        <time>2017-03-10T09:37:35.000Z</time>
      </trkpt>
      <trkpt lat="43.50218" lon="6.79469">
        <ele>247.80000305176</ele>
        <time>2017-03-10T09:37:37.000Z</time>
      </trkpt>
      <trkpt lat="43.50219" lon="6.79493">
        <ele>246</ele>
        <time>2017-03-10T09:37:39.000Z</time>
      </trkpt>
      <trkpt lat="43.50221" lon="6.79505">
        <ele>244.80000305176</ele>
        <time>2017-03-10T09:37:40.000Z</time>
      </trkpt>
      <trkpt lat="43.5023" lon="6.79524">
        <ele>242</ele>
        <time>2017-03-10T09:37:42.000Z</time>
      </trkpt>
      <trkpt lat="43.50244" lon="6.79537">
        <ele>240.39999389648</ele>
        <time>2017-03-10T09:37:44.000Z</time>
      </trkpt>
      <trkpt lat="43.50261" lon="6.79539">
        <ele>239.19999694824</ele>
        <time>2017-03-10T09:37:46.000Z</time>
      </trkpt>
      <trkpt lat="43.50276" lon="6.79531">
        <ele>237.39999389648</ele>
        <time>2017-03-10T09:37:48.000Z</time>
      </trkpt>
      <trkpt lat="43.5029" lon="6.79527">
        <ele>236.39999389648</ele>
        <time>2017-03-10T09:37:50.000Z</time>
      </trkpt>
      <trkpt lat="43.50306" lon="6.7953">
        <ele>235</ele>
        <time>2017-03-10T09:37:52.000Z</time>
      </trkpt>
      <trkpt lat="43.5032" lon="6.79542">
        <ele>234</ele>
        <time>2017-03-10T09:37:54.000Z</time>
      </trkpt>
      <trkpt lat="43.50333" lon="6.79562">
        <ele>232.39999389648</ele>
        <time>2017-03-10T09:37:57.000Z</time>
      </trkpt>
      <trkpt lat="43.50341" lon="6.79563">
        <ele>231.39999389648</ele>
        <time>2017-03-10T09:37:59.000Z</time>
      </trkpt>
      <trkpt lat="43.50343" lon="6.79559">
        <ele>230.39999389648</ele>
        <time>2017-03-10T09:38:00.000Z</time>
      </trkpt>
      <trkpt lat="43.50345" lon="6.79552">
        <ele>229.19999694824</ele>
        <time>2017-03-10T09:38:01.000Z</time>
      </trkpt>
      <trkpt lat="43.50339" lon="6.79539">
        <ele>227.80000305176</ele>
        <time>2017-03-10T09:38:03.000Z</time>
      </trkpt>
      <trkpt lat="43.50349" lon="6.7952">
        <ele>226.19999694824</ele>
        <time>2017-03-10T09:38:09.000Z</time>
      </trkpt>
      <trkpt lat="43.50359" lon="6.79534">
        <ele>224.39999389648</ele>
        <time>2017-03-10T09:38:11.000Z</time>
      </trkpt>
      <trkpt lat="43.50362" lon="6.79543">
        <ele>222.19999694824</ele>
        <time>2017-03-10T09:38:12.000Z</time>
      </trkpt>
      <trkpt lat="43.50361" lon="6.79576">
        <ele>221.19999694824</ele>
        <time>2017-03-10T09:38:15.000Z</time>
      </trkpt>
      <trkpt lat="43.50359" lon="6.79585">
        <ele>220.60000610352</ele>
        <time>2017-03-10T09:38:16.000Z</time>
      </trkpt>
      <trkpt lat="43.50358" lon="6.79591">
        <ele>219.80000305176</ele>
        <time>2017-03-10T09:38:17.000Z</time>
      </trkpt>
      <trkpt lat="43.50359" lon="6.79595">
        <ele>219</ele>
        <time>2017-03-10T09:38:18.000Z</time>
      </trkpt>
      <trkpt lat="43.50361" lon="6.79598">
        <ele>218.19999694824</ele>
        <time>2017-03-10T09:38:19.000Z</time>
      </trkpt>
      <trkpt lat="43.50369" lon="6.79595">
        <ele>216.60000610352</ele>
        <time>2017-03-10T09:38:21.000Z</time>
      </trkpt>
      <trkpt lat="43.50377" lon="6.79582">
        <ele>215.19999694824</ele>
        <time>2017-03-10T09:38:23.000Z</time>
      </trkpt>
      <trkpt lat="43.50393" lon="6.79561">
        <ele>214.19999694824</ele>
        <time>2017-03-10T09:38:26.000Z</time>
      </trkpt>
      <trkpt lat="43.50421" lon="6.79535">
        <ele>213</ele>
        <time>2017-03-10T09:38:30.000Z</time>
      </trkpt>
      <trkpt lat="43.50429" lon="6.79518">
        <ele>211.60000610352</ele>
        <time>2017-03-10T09:38:32.000Z</time>
      </trkpt>
      <trkpt lat="43.50433" lon="6.79512">
        <ele>210.60000610352</ele>
        <time>2017-03-10T09:38:33.000Z</time>
      </trkpt>
      <trkpt lat="43.50437" lon="6.79509">
        <ele>209.60000610352</ele>
        <time>2017-03-10T09:38:34.000Z</time>
      </trkpt>
      <trkpt lat="43.50445" lon="6.79515">
        <ele>207.80000305176</ele>
        <time>2017-03-10T09:38:36.000Z</time>
      </trkpt>
      <trkpt lat="43.50447" lon="6.79521">
        <ele>206.60000610352</ele>
        <time>2017-03-10T09:38:37.000Z</time>
      </trkpt>
      <trkpt lat="43.50444" lon="6.79533">
        <ele>205.19999694824</ele>
        <time>2017-03-10T09:38:39.000Z</time>
      </trkpt>
      <trkpt lat="43.5044" lon="6.79554">
        <ele>203.80000305176</ele>
        <time>2017-03-10T09:38:43.000Z</time>
      </trkpt>
      <trkpt lat="43.50447" lon="6.79558">
        <ele>202.80000305176</ele>
        <time>2017-03-10T09:38:45.000Z</time>
      </trkpt>
      <trkpt lat="43.50462" lon="6.79543">
        <ele>201.80000305176</ele>
        <time>2017-03-10T09:38:48.000Z</time>
      </trkpt>
      <trkpt lat="43.50488" lon="6.79521">
        <ele>200.60000610352</ele>
        <time>2017-03-10T09:38:52.000Z</time>
      </trkpt>
      <trkpt lat="43.50501" lon="6.79508">
        <ele>199.80000305176</ele>
        <time>2017-03-10T09:38:54.000Z</time>
      </trkpt>
      <trkpt lat="43.50507" lon="6.79499">
        <ele>199</ele>
        <time>2017-03-10T09:38:55.000Z</time>
      </trkpt>
      <trkpt lat="43.50517" lon="6.79477">
        <ele>197.39999389648</ele>
        <time>2017-03-10T09:38:57.000Z</time>
      </trkpt>
      <trkpt lat="43.50522" lon="6.79466">
        <ele>196.39999389648</ele>
        <time>2017-03-10T09:38:58.000Z</time>
      </trkpt>
      <trkpt lat="43.50529" lon="6.79455">
        <ele>195.60000610352</ele>
        <time>2017-03-10T09:38:59.000Z</time>
      </trkpt>
      <trkpt lat="43.50544" lon="6.79438">
        <ele>194</ele>
        <time>2017-03-10T09:39:01.000Z</time>
      </trkpt>
      <trkpt lat="43.50562" lon="6.79428">
        <ele>192.60000610352</ele>
        <time>2017-03-10T09:39:03.000Z</time>
      </trkpt>
      <trkpt lat="43.50572" lon="6.79424">
        <ele>191.60000610352</ele>
        <time>2017-03-10T09:39:04.000Z</time>
      </trkpt>
      <trkpt lat="43.50581" lon="6.79421">
        <ele>190.60000610352</ele>
        <time>2017-03-10T09:39:05.000Z</time>
      </trkpt>
      <trkpt lat="43.5059" lon="6.7942">
        <ele>189.19999694824</ele>
        <time>2017-03-10T09:39:06.000Z</time>
      </trkpt>
      <trkpt lat="43.50599" lon="6.79421">
        <ele>187.80000305176</ele>
        <time>2017-03-10T09:39:07.000Z</time>
      </trkpt>
      <trkpt lat="43.50608" lon="6.79425">
        <ele>186.60000610352</ele>
        <time>2017-03-10T09:39:08.000Z</time>
      </trkpt>
      <trkpt lat="43.50622" lon="6.7944">
        <ele>184.80000305176</ele>
        <time>2017-03-10T09:39:10.000Z</time>
      </trkpt>
      <trkpt lat="43.50627" lon="6.7945">
        <ele>183.60000610352</ele>
        <time>2017-03-10T09:39:11.000Z</time>
      </trkpt>
      <trkpt lat="43.5064" lon="6.79485">
        <ele>182.80000305176</ele>
        <time>2017-03-10T09:39:14.000Z</time>
      </trkpt>
      <trkpt lat="43.50645" lon="6.79496">
        <ele>182.60000610352</ele>
        <time>2017-03-10T09:39:15.000Z</time>
      </trkpt>
      <trkpt lat="43.50665" lon="6.79527">
        <ele>181.39999389648</ele>
        <time>2017-03-10T09:39:18.000Z</time>
      </trkpt>
      <trkpt lat="43.50681" lon="6.79542">
        <ele>180.60000610352</ele>
        <time>2017-03-10T09:39:20.000Z</time>
      </trkpt>
      <trkpt lat="43.5069" lon="6.79549">
        <ele>179.60000610352</ele>
        <time>2017-03-10T09:39:21.000Z</time>
      </trkpt>
      <trkpt lat="43.50709" lon="6.79559">
        <ele>177.80000305176</ele>
        <time>2017-03-10T09:39:23.000Z</time>
      </trkpt>
      <trkpt lat="43.50729" lon="6.79553">
        <ele>175.39999389648</ele>
        <time>2017-03-10T09:39:25.000Z</time>
      </trkpt>
      <trkpt lat="43.50737" lon="6.79543">
        <ele>174.19999694824</ele>
        <time>2017-03-10T09:39:26.000Z</time>
      </trkpt>
      <trkpt lat="43.50742" lon="6.79531">
        <ele>173.19999694824</ele>
        <time>2017-03-10T09:39:27.000Z</time>
      </trkpt>
      <trkpt lat="43.50747" lon="6.79519">
        <ele>172</ele>
        <time>2017-03-10T09:39:28.000Z</time>
      </trkpt>
      <trkpt lat="43.50752" lon="6.79506">
        <ele>171</ele>
        <time>2017-03-10T09:39:29.000Z</time>
      </trkpt>
      <trkpt lat="43.50765" lon="6.79483">
        <ele>169.60000610352</ele>
        <time>2017-03-10T09:39:31.000Z</time>
      </trkpt>
      <trkpt lat="43.50775" lon="6.79456">
        <ele>167.80000305176</ele>
        <time>2017-03-10T09:39:33.000Z</time>
      </trkpt>
      <trkpt lat="43.50777" lon="6.79424">
        <ele>166.19999694824</ele>
        <time>2017-03-10T09:39:35.000Z</time>
      </trkpt>
      <trkpt lat="43.50771" lon="6.79395">
        <ele>164.19999694824</ele>
        <time>2017-03-10T09:39:37.000Z</time>
      </trkpt>
      <trkpt lat="43.50767" lon="6.79383">
        <ele>163</ele>
        <time>2017-03-10T09:39:38.000Z</time>
      </trkpt>
      <trkpt lat="43.50763" lon="6.79373">
        <ele>162</ele>
        <time>2017-03-10T09:39:39.000Z</time>
      </trkpt>
      <trkpt lat="43.50761" lon="6.79365">
        <ele>159.60000610352</ele>
        <time>2017-03-10T09:39:40.000Z</time>
      </trkpt>
      <trkpt lat="43.50761" lon="6.79358">
        <ele>158.39999389648</ele>
        <time>2017-03-10T09:39:41.000Z</time>
      </trkpt>
      <trkpt lat="43.50763" lon="6.79351">
        <ele>157.19999694824</ele>
        <time>2017-03-10T09:39:42.000Z</time>
      </trkpt>
      <trkpt lat="43.50773" lon="6.7934">
        <ele>156.19999694824</ele>
        <time>2017-03-10T09:39:44.000Z</time>
      </trkpt>
      <trkpt lat="43.5078" lon="6.79335">
        <ele>155.80000305176</ele>
        <time>2017-03-10T09:39:45.000Z</time>
      </trkpt>
      <trkpt lat="43.50786" lon="6.79328">
        <ele>155.39999389648</ele>
        <time>2017-03-10T09:39:46.000Z</time>
      </trkpt>
      <trkpt lat="43.50795" lon="6.79307">
        <ele>155</ele>
        <time>2017-03-10T09:39:48.000Z</time>
      </trkpt>
      <trkpt lat="43.50801" lon="6.7927">
        <ele>154.19999694824</ele>
        <time>2017-03-10T09:39:51.000Z</time>
      </trkpt>
      <trkpt lat="43.50801" lon="6.79257">
        <ele>153.80000305176</ele>
        <time>2017-03-10T09:39:52.000Z</time>
      </trkpt>
      <trkpt lat="43.50794" lon="6.79233">
        <ele>151.60000610352</ele>
        <time>2017-03-10T09:39:54.000Z</time>
      </trkpt>
      <trkpt lat="43.50787" lon="6.79223">
        <ele>150.19999694824</ele>
        <time>2017-03-10T09:39:55.000Z</time>
      </trkpt>
      <trkpt lat="43.5078" lon="6.79214">
        <ele>149</ele>
        <time>2017-03-10T09:39:56.000Z</time>
      </trkpt>
      <trkpt lat="43.50774" lon="6.79208">
        <ele>147.80000305176</ele>
        <time>2017-03-10T09:39:57.000Z</time>
      </trkpt>
      <trkpt lat="43.50769" lon="6.79202">
        <ele>146.60000610352</ele>
        <time>2017-03-10T09:39:58.000Z</time>
      </trkpt>
      <trkpt lat="43.50766" lon="6.79196">
        <ele>145.60000610352</ele>
        <time>2017-03-10T09:39:59.000Z</time>
      </trkpt>
      <trkpt lat="43.50769" lon="6.79187">
        <ele>144.80000305176</ele>
        <time>2017-03-10T09:40:01.000Z</time>
      </trkpt>
      <trkpt lat="43.50802" lon="6.79189">
        <ele>143.60000610352</ele>
        <time>2017-03-10T09:40:07.000Z</time>
      </trkpt>
      <trkpt lat="43.50808" lon="6.79192">
        <ele>143.19999694824</ele>
        <time>2017-03-10T09:40:08.000Z</time>
      </trkpt>
      <trkpt lat="43.50827" lon="6.79201">
        <ele>142.60000610352</ele>
        <time>2017-03-10T09:40:11.000Z</time>
      </trkpt>
      <trkpt lat="43.50839" lon="6.79211">
        <ele>142.60000610352</ele>
        <time>2017-03-10T09:40:13.000Z</time>
      </trkpt>
      <trkpt lat="43.50857" lon="6.79254">
        <ele>141.39999389648</ele>
        <time>2017-03-10T09:40:18.000Z</time>
      </trkpt>
      <trkpt lat="43.5086" lon="6.79264">
        <ele>141</ele>
        <time>2017-03-10T09:40:19.000Z</time>
      </trkpt>
      <trkpt lat="43.50863" lon="6.79273">
        <ele>140.60000610352</ele>
        <time>2017-03-10T09:40:20.000Z</time>
      </trkpt>
      <trkpt lat="43.50868" lon="6.79282">
        <ele>140.19999694824</ele>
        <time>2017-03-10T09:40:21.000Z</time>
      </trkpt>
      <trkpt lat="43.50879" lon="6.79297">
        <ele>139.19999694824</ele>
        <time>2017-03-10T09:40:23.000Z</time>
      </trkpt>
      <trkpt lat="43.50891" lon="6.79314">
        <ele>138.19999694824</ele>
        <time>2017-03-10T09:40:25.000Z</time>
      </trkpt>
      <trkpt lat="43.50906" lon="6.79323">
        <ele>136.80000305176</ele>
        <time>2017-03-10T09:40:27.000Z</time>
      </trkpt>
      <trkpt lat="43.5093" lon="6.79316">
        <ele>135.60000610352</ele>
        <time>2017-03-10T09:40:30.000Z</time>
      </trkpt>
      <trkpt lat="43.50941" lon="6.79312">
        <ele>134</ele>
        <time>2017-03-10T09:40:32.000Z</time>
      </trkpt>
      <trkpt lat="43.50947" lon="6.7931">
        <ele>132.39999389648</ele>
        <time>2017-03-10T09:40:34.000Z</time>
      </trkpt>
      <trkpt lat="43.50954" lon="6.79303">
        <ele>131.19999694824</ele>
        <time>2017-03-10T09:40:37.000Z</time>
      </trkpt>
      <trkpt lat="43.50967" lon="6.79283">
        <ele>130.39999389648</ele>
        <time>2017-03-10T09:40:41.000Z</time>
      </trkpt>
      <trkpt lat="43.50971" lon="6.79278">
        <ele>130.19999694824</ele>
        <time>2017-03-10T09:40:42.000Z</time>
      </trkpt>
      <trkpt lat="43.51002" lon="6.79236">
        <ele>129.19999694824</ele>
        <time>2017-03-10T09:40:49.000Z</time>
      </trkpt>
      <trkpt lat="43.51024" lon="6.79191">
        <ele>128.19999694824</ele>
        <time>2017-03-10T09:40:55.000Z</time>
      </trkpt>
      <trkpt lat="43.51044" lon="6.79176">
        <ele>126.80000305176</ele>
        <time>2017-03-10T09:40:58.000Z</time>
      </trkpt>
      <trkpt lat="43.51071" lon="6.79157">
        <ele>125.80000305176</ele>
        <time>2017-03-10T09:41:02.000Z</time>
      </trkpt>
      <trkpt lat="43.51077" lon="6.79151">
        <ele>125.19999694824</ele>
        <time>2017-03-10T09:41:03.000Z</time>
      </trkpt>
      <trkpt lat="43.51082" lon="6.79144">
        <ele>124.40000152588</ele>
        <time>2017-03-10T09:41:04.000Z</time>
      </trkpt>
      <trkpt lat="43.51086" lon="6.79138">
        <ele>123.19999694824</ele>
        <time>2017-03-10T09:41:05.000Z</time>
      </trkpt>
      <trkpt lat="43.51092" lon="6.79129">
        <ele>121.80000305176</ele>
        <time>2017-03-10T09:41:07.000Z</time>
      </trkpt>
      <trkpt lat="43.51096" lon="6.79124">
        <ele>121.40000152588</ele>
        <time>2017-03-10T09:41:08.000Z</time>
      </trkpt>
      <trkpt lat="43.51108" lon="6.79106">
        <ele>120.59999847412</ele>
        <time>2017-03-10T09:41:11.000Z</time>
      </trkpt>
      <trkpt lat="43.51115" lon="6.79089">
        <ele>120.19999694824</ele>
        <time>2017-03-10T09:41:13.000Z</time>
      </trkpt>
      <trkpt lat="43.51119" lon="6.79081">
        <ele>120.19999694824</ele>
        <time>2017-03-10T09:41:14.000Z</time>
      </trkpt>
      <trkpt lat="43.5113" lon="6.79067">
        <ele>119.59999847412</ele>
        <time>2017-03-10T09:41:16.000Z</time>
      </trkpt>
      <trkpt lat="43.51145" lon="6.79058">
        <ele>118.19999694824</ele>
        <time>2017-03-10T09:41:18.000Z</time>
      </trkpt>
      <trkpt lat="43.51152" lon="6.79055">
        <ele>117.19999694824</ele>
        <time>2017-03-10T09:41:19.000Z</time>
      </trkpt>
      <trkpt lat="43.5116" lon="6.79053">
        <ele>116.40000152588</ele>
        <time>2017-03-10T09:41:20.000Z</time>
      </trkpt>
      <trkpt lat="43.51167" lon="6.7905">
        <ele>115.19999694824</ele>
        <time>2017-03-10T09:41:21.000Z</time>
      </trkpt>
      <trkpt lat="43.51173" lon="6.79048">
        <ele>114</ele>
        <time>2017-03-10T09:41:22.000Z</time>
      </trkpt>
      <trkpt lat="43.51184" lon="6.79043">
        <ele>112.59999847412</ele>
        <time>2017-03-10T09:41:24.000Z</time>
      </trkpt>
      <trkpt lat="43.51189" lon="6.79039">
        <ele>112.19999694824</ele>
        <time>2017-03-10T09:41:25.000Z</time>
      </trkpt>
      <trkpt lat="43.51203" lon="6.7902">
        <ele>111.80000305176</ele>
        <time>2017-03-10T09:41:29.000Z</time>
      </trkpt>
      <trkpt lat="43.51209" lon="6.79011">
        <ele>111.80000305176</ele>
        <time>2017-03-10T09:41:31.000Z</time>
      </trkpt>
      <trkpt lat="43.51242" lon="6.79044">
        <ele>113.40000152588</ele>
        <time>2017-03-10T09:41:43.000Z</time>
      </trkpt>
      <trkpt lat="43.51249" lon="6.79047">
        <ele>113.59999847412</ele>
        <time>2017-03-10T09:41:45.000Z</time>
      </trkpt>
      <trkpt lat="43.51259" lon="6.79054">
        <ele>113.80000305176</ele>
        <time>2017-03-10T09:41:48.000Z</time>
      </trkpt>
      <trkpt lat="43.51286" lon="6.79074">
        <ele>114.80000305176</ele>
        <time>2017-03-10T09:41:54.000Z</time>
      </trkpt>
      <trkpt lat="43.51301" lon="6.79083">
        <ele>116.40000152588</ele>
        <time>2017-03-10T09:41:57.000Z</time>
      </trkpt>
      <trkpt lat="43.51312" lon="6.7909">
        <ele>117.59999847412</ele>
        <time>2017-03-10T09:41:59.000Z</time>
      </trkpt>
      <trkpt lat="43.51322" lon="6.79097">
        <ele>118.80000305176</ele>
        <time>2017-03-10T09:42:01.000Z</time>
      </trkpt>
      <trkpt lat="43.51328" lon="6.791">
        <ele>119.19999694824</ele>
        <time>2017-03-10T09:42:02.000Z</time>
      </trkpt>
      <trkpt lat="43.51339" lon="6.79105">
        <ele>120.19999694824</ele>
        <time>2017-03-10T09:42:04.000Z</time>
      </trkpt>
      <trkpt lat="43.51355" lon="6.79112">
        <ele>121.19999694824</ele>
        <time>2017-03-10T09:42:07.000Z</time>
      </trkpt>
      <trkpt lat="43.51371" lon="6.79121">
        <ele>123</ele>
        <time>2017-03-10T09:42:10.000Z</time>
      </trkpt>
      <trkpt lat="43.51381" lon="6.79127">
        <ele>124</ele>
        <time>2017-03-10T09:42:12.000Z</time>
      </trkpt>
      <trkpt lat="43.51397" lon="6.79133">
        <ele>125.19999694824</ele>
        <time>2017-03-10T09:42:15.000Z</time>
      </trkpt>
      <trkpt lat="43.51407" lon="6.79138">
        <ele>126.40000152588</ele>
        <time>2017-03-10T09:42:17.000Z</time>
      </trkpt>
      <trkpt lat="43.51417" lon="6.79145">
        <ele>127.40000152588</ele>
        <time>2017-03-10T09:42:19.000Z</time>
      </trkpt>
      <trkpt lat="43.51432" lon="6.79154">
        <ele>128.39999389648</ele>
        <time>2017-03-10T09:42:22.000Z</time>
      </trkpt>
      <trkpt lat="43.51437" lon="6.79156">
        <ele>129</ele>
        <time>2017-03-10T09:42:23.000Z</time>
      </trkpt>
      <trkpt lat="43.51448" lon="6.79158">
        <ele>130.19999694824</ele>
        <time>2017-03-10T09:42:25.000Z</time>
      </trkpt>
      <trkpt lat="43.51462" lon="6.79151">
        <ele>131.19999694824</ele>
        <time>2017-03-10T09:42:28.000Z</time>
      </trkpt>
      <trkpt lat="43.51475" lon="6.79128">
        <ele>132.39999389648</ele>
        <time>2017-03-10T09:42:32.000Z</time>
      </trkpt>
      <trkpt lat="43.5148" lon="6.79115">
        <ele>133.19999694824</ele>
        <time>2017-03-10T09:42:34.000Z</time>
      </trkpt>
      <trkpt lat="43.51481" lon="6.79108">
        <ele>133.80000305176</ele>
        <time>2017-03-10T09:42:35.000Z</time>
      </trkpt>
      <trkpt lat="43.51483" lon="6.79087">
        <ele>134.80000305176</ele>
        <time>2017-03-10T09:42:38.000Z</time>
      </trkpt>
      <trkpt lat="43.51483" lon="6.7908">
        <ele>135.19999694824</ele>
        <time>2017-03-10T09:42:39.000Z</time>
      </trkpt>
      <trkpt lat="43.51483" lon="6.79073">
        <ele>136</ele>
        <time>2017-03-10T09:42:40.000Z</time>
      </trkpt>
      <trkpt lat="43.51484" lon="6.7906">
        <ele>137.19999694824</ele>
        <time>2017-03-10T09:42:42.000Z</time>
      </trkpt>
      <trkpt lat="43.51487" lon="6.79047">
        <ele>138.39999389648</ele>
        <time>2017-03-10T09:42:44.000Z</time>
      </trkpt>
      <trkpt lat="43.51493" lon="6.7902">
        <ele>140</ele>
        <time>2017-03-10T09:42:48.000Z</time>
      </trkpt>
      <trkpt lat="43.51497" lon="6.79006">
        <ele>141.39999389648</ele>
        <time>2017-03-10T09:42:50.000Z</time>
      </trkpt>
      <trkpt lat="43.51503" lon="6.78987">
        <ele>142.80000305176</ele>
        <time>2017-03-10T09:42:53.000Z</time>
      </trkpt>
      <trkpt lat="43.51513" lon="6.78965">
        <ele>144.19999694824</ele>
        <time>2017-03-10T09:42:57.000Z</time>
      </trkpt>
      <trkpt lat="43.51522" lon="6.7895">
        <ele>145.80000305176</ele>
        <time>2017-03-10T09:43:00.000Z</time>
      </trkpt>
      <trkpt lat="43.51529" lon="6.7894">
        <ele>147.19999694824</ele>
        <time>2017-03-10T09:43:02.000Z</time>
      </trkpt>
      <trkpt lat="43.51537" lon="6.78932">
        <ele>148.39999389648</ele>
        <time>2017-03-10T09:43:04.000Z</time>
      </trkpt>
      <trkpt lat="43.51544" lon="6.78922">
        <ele>149.39999389648</ele>
        <time>2017-03-10T09:43:06.000Z</time>
      </trkpt>
      <trkpt lat="43.51558" lon="6.78901">
        <ele>151.60000610352</ele>
        <time>2017-03-10T09:43:10.000Z</time>
      </trkpt>
      <trkpt lat="43.51569" lon="6.78886">
        <ele>152.80000305176</ele>
        <time>2017-03-10T09:43:13.000Z</time>
      </trkpt>
      <trkpt lat="43.51585" lon="6.78869">
        <ele>154.19999694824</ele>
        <time>2017-03-10T09:43:17.000Z</time>
      </trkpt>
      <trkpt lat="43.51597" lon="6.78857">
        <ele>155.60000610352</ele>
        <time>2017-03-10T09:43:20.000Z</time>
      </trkpt>
      <trkpt lat="43.51609" lon="6.78846">
        <ele>156.80000305176</ele>
        <time>2017-03-10T09:43:23.000Z</time>
      </trkpt>
      <trkpt lat="43.51622" lon="6.78835">
        <ele>158</ele>
        <time>2017-03-10T09:43:26.000Z</time>
      </trkpt>
      <trkpt lat="43.51635" lon="6.78826">
        <ele>158.39999389648</ele>
        <time>2017-03-10T09:43:29.000Z</time>
      </trkpt>
      <trkpt lat="43.51644" lon="6.78827">
        <ele>159</ele>
        <time>2017-03-10T09:43:31.000Z</time>
      </trkpt>
      <trkpt lat="43.5165" lon="6.78836">
        <ele>160.39999389648</ele>
        <time>2017-03-10T09:43:33.000Z</time>
      </trkpt>
      <trkpt lat="43.51653" lon="6.78849">
        <ele>161.60000610352</ele>
        <time>2017-03-10T09:43:35.000Z</time>
      </trkpt>
      <trkpt lat="43.51656" lon="6.78864">
        <ele>163</ele>
        <time>2017-03-10T09:43:37.000Z</time>
      </trkpt>
      <trkpt lat="43.51658" lon="6.78877">
        <ele>165.60000610352</ele>
        <time>2017-03-10T09:43:39.000Z</time>
      </trkpt>
      <trkpt lat="43.5166" lon="6.7889">
        <ele>167</ele>
        <time>2017-03-10T09:43:41.000Z</time>
      </trkpt>
      <trkpt lat="43.51664" lon="6.7891">
        <ele>168.19999694824</ele>
        <time>2017-03-10T09:43:44.000Z</time>
      </trkpt>
      <trkpt lat="43.51668" lon="6.78924">
        <ele>169.39999389648</ele>
        <time>2017-03-10T09:43:46.000Z</time>
      </trkpt>
      <trkpt lat="43.51672" lon="6.78937">
        <ele>170.39999389648</ele>
        <time>2017-03-10T09:43:48.000Z</time>
      </trkpt>
      <trkpt lat="43.51677" lon="6.78948">
        <ele>171.80000305176</ele>
        <time>2017-03-10T09:43:50.000Z</time>
      </trkpt>
      <trkpt lat="43.51683" lon="6.78958">
        <ele>172.80000305176</ele>
        <time>2017-03-10T09:43:52.000Z</time>
      </trkpt>
      <trkpt lat="43.51692" lon="6.78964">
        <ele>174.39999389648</ele>
        <time>2017-03-10T09:43:54.000Z</time>
      </trkpt>
      <trkpt lat="43.51703" lon="6.78967">
        <ele>175.60000610352</ele>
        <time>2017-03-10T09:43:56.000Z</time>
      </trkpt>
      <trkpt lat="43.51713" lon="6.78972">
        <ele>176.80000305176</ele>
        <time>2017-03-10T09:43:58.000Z</time>
      </trkpt>
      <trkpt lat="43.51721" lon="6.78981">
        <ele>178.39999389648</ele>
        <time>2017-03-10T09:44:00.000Z</time>
      </trkpt>
      <trkpt lat="43.51731" lon="6.78995">
        <ele>179.60000610352</ele>
        <time>2017-03-10T09:44:03.000Z</time>
      </trkpt>
      <trkpt lat="43.51741" lon="6.7901">
        <ele>181.19999694824</ele>
        <time>2017-03-10T09:44:06.000Z</time>
      </trkpt>
      <trkpt lat="43.5175" lon="6.79015">
        <ele>182.39999389648</ele>
        <time>2017-03-10T09:44:08.000Z</time>
      </trkpt>
      <trkpt lat="43.51755" lon="6.79014">
        <ele>183.60000610352</ele>
        <time>2017-03-10T09:44:09.000Z</time>
      </trkpt>
      <trkpt lat="43.51763" lon="6.79005">
        <ele>185</ele>
        <time>2017-03-10T09:44:11.000Z</time>
      </trkpt>
      <trkpt lat="43.51766" lon="6.78992">
        <ele>186.19999694824</ele>
        <time>2017-03-10T09:44:13.000Z</time>
      </trkpt>
      <trkpt lat="43.51759" lon="6.78974">
        <ele>187.60000610352</ele>
        <time>2017-03-10T09:44:16.000Z</time>
      </trkpt>
      <trkpt lat="43.51752" lon="6.78964">
        <ele>188.80000305176</ele>
        <time>2017-03-10T09:44:18.000Z</time>
      </trkpt>
      <trkpt lat="43.51744" lon="6.78945">
        <ele>190</ele>
        <time>2017-03-10T09:44:21.000Z</time>
      </trkpt>
      <trkpt lat="43.5174" lon="6.78931">
        <ele>190.80000305176</ele>
        <time>2017-03-10T09:44:23.000Z</time>
      </trkpt>
      <trkpt lat="43.51738" lon="6.78923">
        <ele>191.39999389648</ele>
        <time>2017-03-10T09:44:24.000Z</time>
      </trkpt>
      <trkpt lat="43.51736" lon="6.78909">
        <ele>192.39999389648</ele>
        <time>2017-03-10T09:44:26.000Z</time>
      </trkpt>
      <trkpt lat="43.51734" lon="6.78895">
        <ele>193.60000610352</ele>
        <time>2017-03-10T09:44:28.000Z</time>
      </trkpt>
      <trkpt lat="43.51734" lon="6.7888">
        <ele>194.60000610352</ele>
        <time>2017-03-10T09:44:30.000Z</time>
      </trkpt>
      <trkpt lat="43.51737" lon="6.78858">
        <ele>195.80000305176</ele>
        <time>2017-03-10T09:44:33.000Z</time>
      </trkpt>
      <trkpt lat="43.5174" lon="6.78844">
        <ele>197.19999694824</ele>
        <time>2017-03-10T09:44:35.000Z</time>
      </trkpt>
      <trkpt lat="43.51743" lon="6.78829">
        <ele>198.19999694824</ele>
        <time>2017-03-10T09:44:37.000Z</time>
      </trkpt>
      <trkpt lat="43.51745" lon="6.78815">
        <ele>199.19999694824</ele>
        <time>2017-03-10T09:44:39.000Z</time>
      </trkpt>
      <trkpt lat="43.51748" lon="6.78794">
        <ele>200.19999694824</ele>
        <time>2017-03-10T09:44:42.000Z</time>
      </trkpt>
      <trkpt lat="43.5175" lon="6.78771">
        <ele>201.60000610352</ele>
        <time>2017-03-10T09:44:45.000Z</time>
      </trkpt>
      <trkpt lat="43.5175" lon="6.78741">
        <ele>202.80000305176</ele>
        <time>2017-03-10T09:44:49.000Z</time>
      </trkpt>
      <trkpt lat="43.51748" lon="6.78707">
        <ele>203.80000305176</ele>
        <time>2017-03-10T09:44:54.000Z</time>
      </trkpt>
      <trkpt lat="43.51746" lon="6.78686">
        <ele>205.19999694824</ele>
        <time>2017-03-10T09:44:57.000Z</time>
      </trkpt>
      <trkpt lat="43.51742" lon="6.78667">
        <ele>206.39999389648</ele>
        <time>2017-03-10T09:45:00.000Z</time>
      </trkpt>
      <trkpt lat="43.51738" lon="6.78649">
        <ele>207.19999694824</ele>
        <time>2017-03-10T09:45:03.000Z</time>
      </trkpt>
      <trkpt lat="43.51735" lon="6.78639">
        <ele>207.60000610352</ele>
        <time>2017-03-10T09:45:05.000Z</time>
      </trkpt>
      <trkpt lat="43.5173" lon="6.78624">
        <ele>209.39999389648</ele>
        <time>2017-03-10T09:45:08.000Z</time>
      </trkpt>
      <trkpt lat="43.51728" lon="6.78618">
        <ele>209.80000305176</ele>
        <time>2017-03-10T09:45:09.000Z</time>
      </trkpt>
      <trkpt lat="43.51725" lon="6.78574">
        <ele>210</ele>
        <time>2017-03-10T09:45:14.000Z</time>
      </trkpt>
      <trkpt lat="43.51712" lon="6.78541">
        <ele>210</ele>
        <time>2017-03-10T09:45:18.000Z</time>
      </trkpt>
      <trkpt lat="43.51703" lon="6.78525">
        <ele>208.60000610352</ele>
        <time>2017-03-10T09:45:21.000Z</time>
      </trkpt>
      <trkpt lat="43.51701" lon="6.7852">
        <ele>208.39999389648</ele>
        <time>2017-03-10T09:45:22.000Z</time>
      </trkpt>
      <trkpt lat="43.51698" lon="6.78494">
        <ele>207.19999694824</ele>
        <time>2017-03-10T09:45:26.000Z</time>
      </trkpt>
      <trkpt lat="43.51703" lon="6.7847">
        <ele>206.80000305176</ele>
        <time>2017-03-10T09:45:30.000Z</time>
      </trkpt>
      <trkpt lat="43.51708" lon="6.78454">
        <ele>206</ele>
        <time>2017-03-10T09:45:33.000Z</time>
      </trkpt>
      <trkpt lat="43.51714" lon="6.78443">
        <ele>205.19999694824</ele>
        <time>2017-03-10T09:45:35.000Z</time>
      </trkpt>
      <trkpt lat="43.51718" lon="6.78438">
        <ele>205</ele>
        <time>2017-03-10T09:45:36.000Z</time>
      </trkpt>
      <trkpt lat="43.51733" lon="6.78436">
        <ele>204</ele>
        <time>2017-03-10T09:45:39.000Z</time>
      </trkpt>
      <trkpt lat="43.51747" lon="6.78449">
        <ele>202.80000305176</ele>
        <time>2017-03-10T09:45:42.000Z</time>
      </trkpt>
      <trkpt lat="43.51752" lon="6.78453">
        <ele>202</ele>
        <time>2017-03-10T09:45:43.000Z</time>
      </trkpt>
      <trkpt lat="43.51756" lon="6.78455">
        <ele>201.39999389648</ele>
        <time>2017-03-10T09:45:44.000Z</time>
      </trkpt>
      <trkpt lat="43.51769" lon="6.7845">
        <ele>199.80000305176</ele>
        <time>2017-03-10T09:45:47.000Z</time>
      </trkpt>
      <trkpt lat="43.51775" lon="6.78441">
        <ele>198.39999389648</ele>
        <time>2017-03-10T09:45:49.000Z</time>
      </trkpt>
      <trkpt lat="43.5178" lon="6.7843">
        <ele>197.39999389648</ele>
        <time>2017-03-10T09:45:51.000Z</time>
      </trkpt>
      <trkpt lat="43.51796" lon="6.78408">
        <ele>196</ele>
        <time>2017-03-10T09:45:55.000Z</time>
      </trkpt>
      <trkpt lat="43.5181" lon="6.78391">
        <ele>195</ele>
        <time>2017-03-10T09:45:58.000Z</time>
      </trkpt>
      <trkpt lat="43.51816" lon="6.78387">
        <ele>194.60000610352</ele>
        <time>2017-03-10T09:45:59.000Z</time>
      </trkpt>
      <trkpt lat="43.51833" lon="6.78377">
        <ele>193.39999389648</ele>
        <time>2017-03-10T09:46:02.000Z</time>
      </trkpt>
      <trkpt lat="43.51849" lon="6.78379">
        <ele>192.19999694824</ele>
        <time>2017-03-10T09:46:05.000Z</time>
      </trkpt>
      <trkpt lat="43.51853" lon="6.78381">
        <ele>191.80000305176</ele>
        <time>2017-03-10T09:46:06.000Z</time>
      </trkpt>
      <trkpt lat="43.51857" lon="6.78383">
        <ele>191.19999694824</ele>
        <time>2017-03-10T09:46:07.000Z</time>
      </trkpt>
      <trkpt lat="43.51862" lon="6.78384">
        <ele>190.60000610352</ele>
        <time>2017-03-10T09:46:08.000Z</time>
      </trkpt>
      <trkpt lat="43.51897" lon="6.78362">
        <ele>189.60000610352</ele>
        <time>2017-03-10T09:46:15.000Z</time>
      </trkpt>
      <trkpt lat="43.51902" lon="6.78355">
        <ele>189.39999389648</ele>
        <time>2017-03-10T09:46:16.000Z</time>
      </trkpt>
      <trkpt lat="43.51916" lon="6.78344">
        <ele>188.19999694824</ele>
        <time>2017-03-10T09:46:18.000Z</time>
      </trkpt>
      <trkpt lat="43.51931" lon="6.78337">
        <ele>186.60000610352</ele>
        <time>2017-03-10T09:46:20.000Z</time>
      </trkpt>
      <trkpt lat="43.51945" lon="6.78332">
        <ele>185</ele>
        <time>2017-03-10T09:46:22.000Z</time>
      </trkpt>
      <trkpt lat="43.5195" lon="6.78329">
        <ele>184</ele>
        <time>2017-03-10T09:46:23.000Z</time>
      </trkpt>
      <trkpt lat="43.51957" lon="6.78322">
        <ele>182.19999694824</ele>
        <time>2017-03-10T09:46:25.000Z</time>
      </trkpt>
      <trkpt lat="43.5196" lon="6.78314">
        <ele>180.60000610352</ele>
        <time>2017-03-10T09:46:27.000Z</time>
      </trkpt>
      <trkpt lat="43.51962" lon="6.78302">
        <ele>179.39999389648</ele>
        <time>2017-03-10T09:46:29.000Z</time>
      </trkpt>
      <trkpt lat="43.51963" lon="6.78295">
        <ele>179.19999694824</ele>
        <time>2017-03-10T09:46:30.000Z</time>
      </trkpt>
      <trkpt lat="43.51965" lon="6.78287">
        <ele>179.19999694824</ele>
        <time>2017-03-10T09:46:31.000Z</time>
      </trkpt>
      <trkpt lat="43.51995" lon="6.78247">
        <ele>178</ele>
        <time>2017-03-10T09:46:37.000Z</time>
      </trkpt>
      <trkpt lat="43.52008" lon="6.78252">
        <ele>176.19999694824</ele>
        <time>2017-03-10T09:46:39.000Z</time>
      </trkpt>
      <trkpt lat="43.52014" lon="6.78258">
        <ele>175.19999694824</ele>
        <time>2017-03-10T09:46:40.000Z</time>
      </trkpt>
      <trkpt lat="43.52018" lon="6.78266">
        <ele>173.80000305176</ele>
        <time>2017-03-10T09:46:41.000Z</time>
      </trkpt>
      <trkpt lat="43.52021" lon="6.78274">
        <ele>172.80000305176</ele>
        <time>2017-03-10T09:46:42.000Z</time>
      </trkpt>
      <trkpt lat="43.52023" lon="6.78282">
        <ele>171.80000305176</ele>
        <time>2017-03-10T09:46:43.000Z</time>
      </trkpt>
      <trkpt lat="43.52025" lon="6.78287">
        <ele>171.39999389648</ele>
        <time>2017-03-10T09:46:44.000Z</time>
      </trkpt>
      <trkpt lat="43.52031" lon="6.78292">
        <ele>170.19999694824</ele>
        <time>2017-03-10T09:46:46.000Z</time>
      </trkpt>
      <trkpt lat="43.52034" lon="6.78284">
        <ele>169.19999694824</ele>
        <time>2017-03-10T09:46:48.000Z</time>
      </trkpt>
      <trkpt lat="43.52032" lon="6.7826">
        <ele>168</ele>
        <time>2017-03-10T09:46:51.000Z</time>
      </trkpt>
      <trkpt lat="43.52006" lon="6.78229">
        <ele>166.60000610352</ele>
        <time>2017-03-10T09:46:56.000Z</time>
      </trkpt>
      <trkpt lat="43.51992" lon="6.78226">
        <ele>164.80000305176</ele>
        <time>2017-03-10T09:46:58.000Z</time>
      </trkpt>
      <trkpt lat="43.51978" lon="6.78228">
        <ele>163.39999389648</ele>
        <time>2017-03-10T09:47:00.000Z</time>
      </trkpt>
      <trkpt lat="43.5197" lon="6.7823">
        <ele>163</ele>
        <time>2017-03-10T09:47:01.000Z</time>
      </trkpt>
      <trkpt lat="43.51956" lon="6.78234">
        <ele>162.19999694824</ele>
        <time>2017-03-10T09:47:03.000Z</time>
      </trkpt>
      <trkpt lat="43.51948" lon="6.78236">
        <ele>161.80000305176</ele>
        <time>2017-03-10T09:47:04.000Z</time>
      </trkpt>
      <trkpt lat="43.51935" lon="6.78231">
        <ele>161.19999694824</ele>
        <time>2017-03-10T09:47:07.000Z</time>
      </trkpt>
      <trkpt lat="43.51956" lon="6.78216">
        <ele>160.19999694824</ele>
        <time>2017-03-10T09:47:12.000Z</time>
      </trkpt>
      <trkpt lat="43.51963" lon="6.78214">
        <ele>160.19999694824</ele>
        <time>2017-03-10T09:47:13.000Z</time>
      </trkpt>
      <trkpt lat="43.51978" lon="6.78206">
        <ele>160</ele>
        <time>2017-03-10T09:47:15.000Z</time>
      </trkpt>
      <trkpt lat="43.52002" lon="6.78194">
        <ele>158.80000305176</ele>
        <time>2017-03-10T09:47:18.000Z</time>
      </trkpt>
      <trkpt lat="43.52022" lon="6.78193">
        <ele>157.60000610352</ele>
        <time>2017-03-10T09:47:20.000Z</time>
      </trkpt>
      <trkpt lat="43.52039" lon="6.78205">
        <ele>155.60000610352</ele>
        <time>2017-03-10T09:47:22.000Z</time>
      </trkpt>
      <trkpt lat="43.52047" lon="6.78214">
        <ele>154.60000610352</ele>
        <time>2017-03-10T09:47:23.000Z</time>
      </trkpt>
      <trkpt lat="43.52062" lon="6.78232">
        <ele>153.19999694824</ele>
        <time>2017-03-10T09:47:25.000Z</time>
      </trkpt>
      <trkpt lat="43.52078" lon="6.78247">
        <ele>151.60000610352</ele>
        <time>2017-03-10T09:47:27.000Z</time>
      </trkpt>
      <trkpt lat="43.52095" lon="6.78255">
        <ele>149.39999389648</ele>
        <time>2017-03-10T09:47:29.000Z</time>
      </trkpt>
      <trkpt lat="43.52116" lon="6.78253">
        <ele>148</ele>
        <time>2017-03-10T09:47:31.000Z</time>
      </trkpt>
      <trkpt lat="43.52168" lon="6.78243">
        <ele>147</ele>
        <time>2017-03-10T09:47:36.000Z</time>
      </trkpt>
      <trkpt lat="43.5219" lon="6.78242">
        <ele>146</ele>
        <time>2017-03-10T09:47:38.000Z</time>
      </trkpt>
      <trkpt lat="43.52201" lon="6.78242">
        <ele>145</ele>
        <time>2017-03-10T09:47:39.000Z</time>
      </trkpt>
      <trkpt lat="43.52212" lon="6.78239">
        <ele>144</ele>
        <time>2017-03-10T09:47:40.000Z</time>
      </trkpt>
      <trkpt lat="43.52222" lon="6.78233">
        <ele>143</ele>
        <time>2017-03-10T09:47:41.000Z</time>
      </trkpt>
      <trkpt lat="43.52239" lon="6.78215">
        <ele>141.19999694824</ele>
        <time>2017-03-10T09:47:43.000Z</time>
      </trkpt>
      <trkpt lat="43.52252" lon="6.78193">
        <ele>139.60000610352</ele>
        <time>2017-03-10T09:47:45.000Z</time>
      </trkpt>
      <trkpt lat="43.52253" lon="6.78172">
        <ele>137.60000610352</ele>
        <time>2017-03-10T09:47:47.000Z</time>
      </trkpt>
      <trkpt lat="43.52244" lon="6.78158">
        <ele>136</ele>
        <time>2017-03-10T09:47:49.000Z</time>
      </trkpt>
      <trkpt lat="43.52233" lon="6.78149">
        <ele>134.80000305176</ele>
        <time>2017-03-10T09:47:51.000Z</time>
      </trkpt>
      <trkpt lat="43.52228" lon="6.78145">
        <ele>134.39999389648</ele>
        <time>2017-03-10T09:47:52.000Z</time>
      </trkpt>
      <trkpt lat="43.52223" lon="6.78139">
        <ele>134.39999389648</ele>
        <time>2017-03-10T09:47:53.000Z</time>
      </trkpt>
      <trkpt lat="43.52195" lon="6.78103">
        <ele>134.19999694824</ele>
        <time>2017-03-10T09:47:59.000Z</time>
      </trkpt>
      <trkpt lat="43.52182" lon="6.78071">
        <ele>134.39999389648</ele>
        <time>2017-03-10T09:48:03.000Z</time>
      </trkpt>
      <trkpt lat="43.52179" lon="6.78026">
        <ele>134.39999389648</ele>
        <time>2017-03-10T09:48:08.000Z</time>
      </trkpt>
      <trkpt lat="43.5218" lon="6.78017">
        <ele>134.39999389648</ele>
        <time>2017-03-10T09:48:09.000Z</time>
      </trkpt>
      <trkpt lat="43.52186" lon="6.7794">
        <ele>133.80000305176</ele>
        <time>2017-03-10T09:48:18.000Z</time>
      </trkpt>
      <trkpt lat="43.52186" lon="6.77931">
        <ele>133.60000610352</ele>
        <time>2017-03-10T09:48:19.000Z</time>
      </trkpt>
      <trkpt lat="43.52185" lon="6.7785">
        <ele>133</ele>
        <time>2017-03-10T09:48:28.000Z</time>
      </trkpt>
      <trkpt lat="43.52184" lon="6.77842">
        <ele>133</ele>
        <time>2017-03-10T09:48:29.000Z</time>
      </trkpt>
      <trkpt lat="43.52165" lon="6.77768">
        <ele>133.39999389648</ele>
        <time>2017-03-10T09:48:39.000Z</time>
      </trkpt>
      <trkpt lat="43.5216" lon="6.7775">
        <ele>133.60000610352</ele>
        <time>2017-03-10T09:48:42.000Z</time>
      </trkpt>
      <trkpt lat="43.52135" lon="6.77775">
        <ele>134.19999694824</ele>
        <time>2017-03-10T09:48:49.000Z</time>
      </trkpt>
      <trkpt lat="43.52131" lon="6.77783">
        <ele>134.19999694824</ele>
        <time>2017-03-10T09:48:50.000Z</time>
      </trkpt>
      <trkpt lat="43.52105" lon="6.77792">
        <ele>134.19999694824</ele>
        <time>2017-03-10T09:48:54.000Z</time>
      </trkpt>
      <trkpt lat="43.52058" lon="6.77795">
        <ele>132.39999389648</ele>
        <time>2017-03-10T09:49:00.000Z</time>
      </trkpt>
      <trkpt lat="43.52042" lon="6.77797">
        <ele>131</ele>
        <time>2017-03-10T09:49:02.000Z</time>
      </trkpt>
      <trkpt lat="43.52034" lon="6.77799">
        <ele>130.39999389648</ele>
        <time>2017-03-10T09:49:03.000Z</time>
      </trkpt>
      <trkpt lat="43.52026" lon="6.77801">
        <ele>129.60000610352</ele>
        <time>2017-03-10T09:49:04.000Z</time>
      </trkpt>
      <trkpt lat="43.52008" lon="6.77806">
        <ele>127.59999847412</ele>
        <time>2017-03-10T09:49:06.000Z</time>
      </trkpt>
      <trkpt lat="43.51982" lon="6.77816">
        <ele>126.40000152588</ele>
        <time>2017-03-10T09:49:09.000Z</time>
      </trkpt>
      <trkpt lat="43.51964" lon="6.77814">
        <ele>124.40000152588</ele>
        <time>2017-03-10T09:49:11.000Z</time>
      </trkpt>
      <trkpt lat="43.51957" lon="6.7781">
        <ele>123.59999847412</ele>
        <time>2017-03-10T09:49:12.000Z</time>
      </trkpt>
      <trkpt lat="43.51951" lon="6.77802">
        <ele>122.40000152588</ele>
        <time>2017-03-10T09:49:13.000Z</time>
      </trkpt>
      <trkpt lat="43.51943" lon="6.77781">
        <ele>120.59999847412</ele>
        <time>2017-03-10T09:49:15.000Z</time>
      </trkpt>
      <trkpt lat="43.51943" lon="6.77755">
        <ele>119.40000152588</ele>
        <time>2017-03-10T09:49:17.000Z</time>
      </trkpt>
      <trkpt lat="43.51943" lon="6.77729">
        <ele>118.40000152588</ele>
        <time>2017-03-10T09:49:19.000Z</time>
      </trkpt>
      <trkpt lat="43.51933" lon="6.7769">
        <ele>116.59999847412</ele>
        <time>2017-03-10T09:49:22.000Z</time>
      </trkpt>
      <trkpt lat="43.51928" lon="6.77678">
        <ele>115.40000152588</ele>
        <time>2017-03-10T09:49:23.000Z</time>
      </trkpt>
      <trkpt lat="43.51923" lon="6.77666">
        <ele>114.40000152588</ele>
        <time>2017-03-10T09:49:24.000Z</time>
      </trkpt>
      <trkpt lat="43.51917" lon="6.77656">
        <ele>113.19999694824</ele>
        <time>2017-03-10T09:49:25.000Z</time>
      </trkpt>
      <trkpt lat="43.51911" lon="6.77646">
        <ele>112.19999694824</ele>
        <time>2017-03-10T09:49:26.000Z</time>
      </trkpt>
      <trkpt lat="43.51905" lon="6.77636">
        <ele>111.19999694824</ele>
        <time>2017-03-10T09:49:27.000Z</time>
      </trkpt>
      <trkpt lat="43.51898" lon="6.77616">
        <ele>109.40000152588</ele>
        <time>2017-03-10T09:49:29.000Z</time>
      </trkpt>
      <trkpt lat="43.51895" lon="6.77605">
        <ele>108.40000152588</ele>
        <time>2017-03-10T09:49:30.000Z</time>
      </trkpt>
      <trkpt lat="43.51892" lon="6.77586">
        <ele>107</ele>
        <time>2017-03-10T09:49:32.000Z</time>
      </trkpt>
      <trkpt lat="43.51882" lon="6.77573">
        <ele>105.59999847412</ele>
        <time>2017-03-10T09:49:35.000Z</time>
      </trkpt>
      <trkpt lat="43.51875" lon="6.77585">
        <ele>104.19999694824</ele>
        <time>2017-03-10T09:49:38.000Z</time>
      </trkpt>
      <trkpt lat="43.51876" lon="6.77593">
        <ele>104</ele>
        <time>2017-03-10T09:49:39.000Z</time>
      </trkpt>
      <trkpt lat="43.51875" lon="6.77599">
        <ele>103.80000305176</ele>
        <time>2017-03-10T09:49:40.000Z</time>
      </trkpt>
      <trkpt lat="43.51869" lon="6.77603">
        <ele>103.19999694824</ele>
        <time>2017-03-10T09:49:42.000Z</time>
      </trkpt>
      <trkpt lat="43.51859" lon="6.77594">
        <ele>101.40000152588</ele>
        <time>2017-03-10T09:49:44.000Z</time>
      </trkpt>
      <trkpt lat="43.5185" lon="6.77578">
        <ele>100.40000152588</ele>
        <time>2017-03-10T09:49:46.000Z</time>
      </trkpt>
      <trkpt lat="43.51842" lon="6.77559">
        <ele>99.400001525879</ele>
        <time>2017-03-10T09:49:48.000Z</time>
      </trkpt>
      <trkpt lat="43.51837" lon="6.77552">
        <ele>98.800003051758</ele>
        <time>2017-03-10T09:49:49.000Z</time>
      </trkpt>
      <trkpt lat="43.51824" lon="6.77548">
        <ele>97</ele>
        <time>2017-03-10T09:49:51.000Z</time>
      </trkpt>
      <trkpt lat="43.51808" lon="6.77554">
        <ele>95.400001525879</ele>
        <time>2017-03-10T09:49:53.000Z</time>
      </trkpt>
      <trkpt lat="43.51799" lon="6.77556">
        <ele>94.599998474121</ele>
        <time>2017-03-10T09:49:54.000Z</time>
      </trkpt>
      <trkpt lat="43.5179" lon="6.77555">
        <ele>93.800003051758</ele>
        <time>2017-03-10T09:49:55.000Z</time>
      </trkpt>
      <trkpt lat="43.51761" lon="6.77521">
        <ele>92</ele>
        <time>2017-03-10T09:49:59.000Z</time>
      </trkpt>
      <trkpt lat="43.51756" lon="6.77509">
        <ele>90.400001525879</ele>
        <time>2017-03-10T09:50:00.000Z</time>
      </trkpt>
      <trkpt lat="43.51752" lon="6.77496">
        <ele>88.599998474121</ele>
        <time>2017-03-10T09:50:01.000Z</time>
      </trkpt>
      <trkpt lat="43.51751" lon="6.77482">
        <ele>86.800003051758</ele>
        <time>2017-03-10T09:50:02.000Z</time>
      </trkpt>
      <trkpt lat="43.51751" lon="6.77468">
        <ele>85</ele>
        <time>2017-03-10T09:50:03.000Z</time>
      </trkpt>
      <trkpt lat="43.51752" lon="6.77453">
        <ele>83.400001525879</ele>
        <time>2017-03-10T09:50:04.000Z</time>
      </trkpt>
      <trkpt lat="43.51753" lon="6.77438">
        <ele>81</ele>
        <time>2017-03-10T09:50:05.000Z</time>
      </trkpt>
      <trkpt lat="43.51753" lon="6.77422">
        <ele>80</ele>
        <time>2017-03-10T09:50:06.000Z</time>
      </trkpt>
      <trkpt lat="43.51751" lon="6.77407">
        <ele>79</ele>
        <time>2017-03-10T09:50:07.000Z</time>
      </trkpt>
      <trkpt lat="43.5175" lon="6.77391">
        <ele>78.199996948242</ele>
        <time>2017-03-10T09:50:08.000Z</time>
      </trkpt>
      <trkpt lat="43.51755" lon="6.77363">
        <ele>76.400001525879</ele>
        <time>2017-03-10T09:50:10.000Z</time>
      </trkpt>
      <trkpt lat="43.51764" lon="6.77344">
        <ele>74.599998474121</ele>
        <time>2017-03-10T09:50:12.000Z</time>
      </trkpt>
      <trkpt lat="43.51767" lon="6.77339">
        <ele>73</ele>
        <time>2017-03-10T09:50:13.000Z</time>
      </trkpt>
      <trkpt lat="43.51766" lon="6.77333">
        <ele>71.599998474121</ele>
        <time>2017-03-10T09:50:14.000Z</time>
      </trkpt>
      <trkpt lat="43.51763" lon="6.7733">
        <ele>70.400001525879</ele>
        <time>2017-03-10T09:50:15.000Z</time>
      </trkpt>
      <trkpt lat="43.51753" lon="6.77334">
        <ele>69.199996948242</ele>
        <time>2017-03-10T09:50:17.000Z</time>
      </trkpt>
      <trkpt lat="43.51732" lon="6.77364">
        <ele>68</ele>
        <time>2017-03-10T09:50:21.000Z</time>
      </trkpt>
      <trkpt lat="43.51725" lon="6.77385">
        <ele>67.199996948242</ele>
        <time>2017-03-10T09:50:23.000Z</time>
      </trkpt>
      <trkpt lat="43.5172" lon="6.77395">
        <ele>66.599998474121</ele>
        <time>2017-03-10T09:50:24.000Z</time>
      </trkpt>
      <trkpt lat="43.5171" lon="6.77416">
        <ele>64.800003051758</ele>
        <time>2017-03-10T09:50:26.000Z</time>
      </trkpt>
      <trkpt lat="43.51706" lon="6.77427">
        <ele>63.799999237061</ele>
        <time>2017-03-10T09:50:27.000Z</time>
      </trkpt>
      <trkpt lat="43.51702" lon="6.77436">
        <ele>62.799999237061</ele>
        <time>2017-03-10T09:50:28.000Z</time>
      </trkpt>
      <trkpt lat="43.51699" lon="6.77441">
        <ele>61.799999237061</ele>
        <time>2017-03-10T09:50:29.000Z</time>
      </trkpt>
      <trkpt lat="43.51695" lon="6.77444">
        <ele>61</ele>
        <time>2017-03-10T09:50:30.000Z</time>
      </trkpt>
      <trkpt lat="43.51686" lon="6.77429">
        <ele>59.200000762939</ele>
        <time>2017-03-10T09:50:33.000Z</time>
      </trkpt>
      <trkpt lat="43.51686" lon="6.77419">
        <ele>58.200000762939</ele>
        <time>2017-03-10T09:50:34.000Z</time>
      </trkpt>
      <trkpt lat="43.51687" lon="6.77408">
        <ele>57.200000762939</ele>
        <time>2017-03-10T09:50:35.000Z</time>
      </trkpt>
      <trkpt lat="43.51688" lon="6.77397">
        <ele>56.599998474121</ele>
        <time>2017-03-10T09:50:36.000Z</time>
      </trkpt>
      <trkpt lat="43.5169" lon="6.77385">
        <ele>56.200000762939</ele>
        <time>2017-03-10T09:50:37.000Z</time>
      </trkpt>
      <trkpt lat="43.51696" lon="6.77362">
        <ele>55.400001525879</ele>
        <time>2017-03-10T09:50:39.000Z</time>
      </trkpt>
      <trkpt lat="43.51694" lon="6.77345">
        <ele>54.400001525879</ele>
        <time>2017-03-10T09:50:41.000Z</time>
      </trkpt>
      <trkpt lat="43.5169" lon="6.77341">
        <ele>53.200000762939</ele>
        <time>2017-03-10T09:50:42.000Z</time>
      </trkpt>
      <trkpt lat="43.51685" lon="6.77339">
        <ele>52</ele>
        <time>2017-03-10T09:50:43.000Z</time>
      </trkpt>
      <trkpt lat="43.5168" lon="6.77342">
        <ele>51</ele>
        <time>2017-03-10T09:50:44.000Z</time>
      </trkpt>
      <trkpt lat="43.51674" lon="6.77348">
        <ele>49.400001525879</ele>
        <time>2017-03-10T09:50:45.000Z</time>
      </trkpt>
      <trkpt lat="43.51668" lon="6.77356">
        <ele>48.200000762939</ele>
        <time>2017-03-10T09:50:46.000Z</time>
      </trkpt>
      <trkpt lat="43.51661" lon="6.77362">
        <ele>47.599998474121</ele>
        <time>2017-03-10T09:50:47.000Z</time>
      </trkpt>
      <trkpt lat="43.51646" lon="6.77372">
        <ele>47</ele>
        <time>2017-03-10T09:50:49.000Z</time>
      </trkpt>
      <trkpt lat="43.5163" lon="6.7738">
        <ele>45.799999237061</ele>
        <time>2017-03-10T09:50:51.000Z</time>
      </trkpt>
      <trkpt lat="43.51615" lon="6.77387">
        <ele>44.200000762939</ele>
        <time>2017-03-10T09:50:53.000Z</time>
      </trkpt>
      <trkpt lat="43.51608" lon="6.77389">
        <ele>43.200000762939</ele>
        <time>2017-03-10T09:50:54.000Z</time>
      </trkpt>
      <trkpt lat="43.516" lon="6.77393">
        <ele>41</ele>
        <time>2017-03-10T09:50:56.000Z</time>
      </trkpt>
      <trkpt lat="43.51598" lon="6.7741">
        <ele>40</ele>
        <time>2017-03-10T09:50:59.000Z</time>
      </trkpt>
      <trkpt lat="43.51613" lon="6.77436">
        <ele>39.200000762939</ele>
        <time>2017-03-10T09:51:03.000Z</time>
      </trkpt>
      <trkpt lat="43.51618" lon="6.77442">
        <ele>39</ele>
        <time>2017-03-10T09:51:04.000Z</time>
      </trkpt>
      <trkpt lat="43.51627" lon="6.77456">
        <ele>38.400001525879</ele>
        <time>2017-03-10T09:51:06.000Z</time>
      </trkpt>
      <trkpt lat="43.51623" lon="6.77475">
        <ele>37.799999237061</ele>
        <time>2017-03-10T09:51:09.000Z</time>
      </trkpt>
      <trkpt lat="43.51611" lon="6.77479">
        <ele>36.799999237061</ele>
        <time>2017-03-10T09:51:11.000Z</time>
      </trkpt>
      <trkpt lat="43.51598" lon="6.77482">
        <ele>35.400001525879</ele>
        <time>2017-03-10T09:51:13.000Z</time>
      </trkpt>
      <trkpt lat="43.51573" lon="6.77491">
        <ele>34.400001525879</ele>
        <time>2017-03-10T09:51:17.000Z</time>
      </trkpt>
      <trkpt lat="43.51561" lon="6.77493">
        <ele>33.799999237061</ele>
        <time>2017-03-10T09:51:19.000Z</time>
      </trkpt>
      <trkpt lat="43.51521" lon="6.77486">
        <ele>33.400001525879</ele>
        <time>2017-03-10T09:51:26.000Z</time>
      </trkpt>
      <trkpt lat="43.51504" lon="6.77486">
        <ele>33.400001525879</ele>
        <time>2017-03-10T09:51:29.000Z</time>
      </trkpt>
      <trkpt lat="43.5148" lon="6.77494">
        <ele>33.400001525879</ele>
        <time>2017-03-10T09:51:33.000Z</time>
      </trkpt>
      <trkpt lat="43.51454" lon="6.77497">
        <ele>33.400001525879</ele>
        <time>2017-03-10T09:51:37.000Z</time>
      </trkpt>
      <trkpt lat="43.51442" lon="6.77502">
        <ele>33.400001525879</ele>
        <time>2017-03-10T09:51:39.000Z</time>
      </trkpt>
      <trkpt lat="43.51406" lon="6.7752">
        <ele>32.200000762939</ele>
        <time>2017-03-10T09:51:44.000Z</time>
      </trkpt>
      <trkpt lat="43.51392" lon="6.77535">
        <ele>31</ele>
        <time>2017-03-10T09:51:46.000Z</time>
      </trkpt>
      <trkpt lat="43.51378" lon="6.77552">
        <ele>30</ele>
        <time>2017-03-10T09:51:49.000Z</time>
      </trkpt>
      <trkpt lat="43.51372" lon="6.77557">
        <ele>28</ele>
        <time>2017-03-10T09:51:51.000Z</time>
      </trkpt>
      <trkpt lat="43.51369" lon="6.77557">
        <ele>26.799999237061</ele>
        <time>2017-03-10T09:51:52.000Z</time>
      </trkpt>
      <trkpt lat="43.51365" lon="6.77554">
        <ele>25.60000038147</ele>
        <time>2017-03-10T09:51:53.000Z</time>
      </trkpt>
      <trkpt lat="43.51362" lon="6.77548">
        <ele>24.39999961853</ele>
        <time>2017-03-10T09:51:54.000Z</time>
      </trkpt>
      <trkpt lat="43.5136" lon="6.77532">
        <ele>23.200000762939</ele>
        <time>2017-03-10T09:51:56.000Z</time>
      </trkpt>
      <trkpt lat="43.51384" lon="6.77475">
        <ele>21.60000038147</ele>
        <time>2017-03-10T09:52:02.000Z</time>
      </trkpt>
      <trkpt lat="43.51384" lon="6.77457">
        <ele>19.39999961853</ele>
        <time>2017-03-10T09:52:04.000Z</time>
      </trkpt>
      <trkpt lat="43.51383" lon="6.77449">
        <ele>18.39999961853</ele>
        <time>2017-03-10T09:52:05.000Z</time>
      </trkpt>
      <trkpt lat="43.51382" lon="6.77442">
        <ele>17.60000038147</ele>
        <time>2017-03-10T09:52:06.000Z</time>
      </trkpt>
      <trkpt lat="43.51381" lon="6.77435">
        <ele>17.200000762939</ele>
        <time>2017-03-10T09:52:07.000Z</time>
      </trkpt>
      <trkpt lat="43.51367" lon="6.77384">
        <ele>18.39999961853</ele>
        <time>2017-03-10T09:52:19.000Z</time>
      </trkpt>
      <trkpt lat="43.5136" lon="6.77371">
        <ele>19.60000038147</ele>
        <time>2017-03-10T09:52:22.000Z</time>
      </trkpt>
      <trkpt lat="43.51336" lon="6.77339">
        <ele>20.60000038147</ele>
        <time>2017-03-10T09:52:29.000Z</time>
      </trkpt>
      <trkpt lat="43.51334" lon="6.77334">
        <ele>20.60000038147</ele>
        <time>2017-03-10T09:52:30.000Z</time>
      </trkpt>
      <trkpt lat="43.51321" lon="6.77308">
        <ele>21.799999237061</ele>
        <time>2017-03-10T09:52:35.000Z</time>
      </trkpt>
      <trkpt lat="43.51318" lon="6.77304">
        <ele>22</ele>
        <time>2017-03-10T09:52:36.000Z</time>
      </trkpt>
      <trkpt lat="43.51295" lon="6.77295">
        <ele>23.200000762939</ele>
        <time>2017-03-10T09:52:42.000Z</time>
      </trkpt>
      <trkpt lat="43.51278" lon="6.77324">
        <ele>24.39999961853</ele>
        <time>2017-03-10T09:52:48.000Z</time>
      </trkpt>
      <trkpt lat="43.51275" lon="6.77338">
        <ele>25</ele>
        <time>2017-03-10T09:52:50.000Z</time>
      </trkpt>
      <trkpt lat="43.51271" lon="6.77359">
        <ele>25.60000038147</ele>
        <time>2017-03-10T09:52:53.000Z</time>
      </trkpt>
      <trkpt lat="43.5127" lon="6.77366">
        <ele>25.799999237061</ele>
        <time>2017-03-10T09:52:54.000Z</time>
      </trkpt>
      <trkpt lat="43.51266" lon="6.77392">
        <ele>26.200000762939</ele>
        <time>2017-03-10T09:52:58.000Z</time>
      </trkpt>
      <trkpt lat="43.51256" lon="6.77401">
        <ele>26.60000038147</ele>
        <time>2017-03-10T09:53:01.000Z</time>
      </trkpt>
      <trkpt lat="43.51237" lon="6.77374">
        <ele>27.39999961853</ele>
        <time>2017-03-10T09:53:07.000Z</time>
      </trkpt>
      <trkpt lat="43.51223" lon="6.77317">
        <ele>27.60000038147</ele>
        <time>2017-03-10T09:53:14.000Z</time>
      </trkpt>
      <trkpt lat="43.5118" lon="6.77287">
        <ele>25.39999961853</ele>
        <time>2017-03-10T09:53:22.000Z</time>
      </trkpt>
      <trkpt lat="43.51169" lon="6.7727">
        <ele>24.39999961853</ele>
        <time>2017-03-10T09:53:26.000Z</time>
      </trkpt>
      <trkpt lat="43.51173" lon="6.77251">
        <ele>24.200000762939</ele>
        <time>2017-03-10T09:53:29.000Z</time>
      </trkpt>
      <trkpt lat="43.51174" lon="6.7723">
        <ele>24.200000762939</ele>
        <time>2017-03-10T09:53:32.000Z</time>
      </trkpt>
      <trkpt lat="43.5116" lon="6.77207">
        <ele>24.799999237061</ele>
        <time>2017-03-10T09:53:37.000Z</time>
      </trkpt>
      <trkpt lat="43.51144" lon="6.77196">
        <ele>25.39999961853</ele>
        <time>2017-03-10T09:53:41.000Z</time>
      </trkpt>
      <trkpt lat="43.51119" lon="6.7718">
        <ele>25.60000038147</ele>
        <time>2017-03-10T09:53:47.000Z</time>
      </trkpt>
      <trkpt lat="43.51093" lon="6.77129">
        <ele>25.60000038147</ele>
        <time>2017-03-10T09:53:56.000Z</time>
      </trkpt>
      <trkpt lat="43.51101" lon="6.7711">
        <ele>25</ele>
        <time>2017-03-10T09:53:59.000Z</time>
      </trkpt>
      <trkpt lat="43.51107" lon="6.77095">
        <ele>24.60000038147</ele>
        <time>2017-03-10T09:54:01.000Z</time>
      </trkpt>
      <trkpt lat="43.51109" lon="6.77085">
        <ele>24.39999961853</ele>
        <time>2017-03-10T09:54:02.000Z</time>
      </trkpt>
      <trkpt lat="43.51112" lon="6.77063">
        <ele>23.60000038147</ele>
        <time>2017-03-10T09:54:04.000Z</time>
      </trkpt>
      <trkpt lat="43.51112" lon="6.7704">
        <ele>23</ele>
        <time>2017-03-10T09:54:06.000Z</time>
      </trkpt>
      <trkpt lat="43.51108" lon="6.77006">
        <ele>22.200000762939</ele>
        <time>2017-03-10T09:54:09.000Z</time>
      </trkpt>
      <trkpt lat="43.511" lon="6.76989">
        <ele>20.799999237061</ele>
        <time>2017-03-10T09:54:11.000Z</time>
      </trkpt>
      <trkpt lat="43.51086" lon="6.76981">
        <ele>18.60000038147</ele>
        <time>2017-03-10T09:54:13.000Z</time>
      </trkpt>
      <trkpt lat="43.51061" lon="6.76965">
        <ele>17.39999961853</ele>
        <time>2017-03-10T09:54:16.000Z</time>
      </trkpt>
      <trkpt lat="43.51046" lon="6.76941">
        <ele>16</ele>
        <time>2017-03-10T09:54:19.000Z</time>
      </trkpt>
      <trkpt lat="43.51037" lon="6.76926">
        <ele>15</ele>
        <time>2017-03-10T09:54:21.000Z</time>
      </trkpt>
      <trkpt lat="43.50998" lon="6.76871">
        <ele>14.39999961853</ele>
        <time>2017-03-10T09:54:33.000Z</time>
      </trkpt>
      <trkpt lat="43.5095" lon="6.76823">
        <ele>14.199999809265</ele>
        <time>2017-03-10T09:54:41.000Z</time>
      </trkpt>
      <trkpt lat="43.50933" lon="6.76802">
        <ele>13.60000038147</ele>
        <time>2017-03-10T09:54:44.000Z</time>
      </trkpt>
      <trkpt lat="43.50928" lon="6.76794">
        <ele>12.39999961853</ele>
        <time>2017-03-10T09:54:45.000Z</time>
      </trkpt>
      <trkpt lat="43.50922" lon="6.76787">
        <ele>11</ele>
        <time>2017-03-10T09:54:46.000Z</time>
      </trkpt>
      <trkpt lat="43.50916" lon="6.7678">
        <ele>10.199999809265</ele>
        <time>2017-03-10T09:54:47.000Z</time>
      </trkpt>
      <trkpt lat="43.50909" lon="6.76775">
        <ele>9.6000003814697</ele>
        <time>2017-03-10T09:54:48.000Z</time>
      </trkpt>
      <trkpt lat="43.50881" lon="6.76771">
        <ele>8.8000001907349</ele>
        <time>2017-03-10T09:54:53.000Z</time>
      </trkpt>
      <trkpt lat="43.50872" lon="6.76772">
        <ele>8.8000001907349</ele>
        <time>2017-03-10T09:54:55.000Z</time>
      </trkpt>
      <trkpt lat="43.50838" lon="6.76771">
        <ele>11.800000190735</ele>
        <time>2017-03-10T09:55:02.000Z</time>
      </trkpt>
      <trkpt lat="43.50829" lon="6.76768">
        <ele>12.800000190735</ele>
        <time>2017-03-10T09:55:04.000Z</time>
      </trkpt>
      <trkpt lat="43.50824" lon="6.76765">
        <ele>13</ele>
        <time>2017-03-10T09:55:05.000Z</time>
      </trkpt>
      <trkpt lat="43.50807" lon="6.76734">
        <ele>13.199999809265</ele>
        <time>2017-03-10T09:55:10.000Z</time>
      </trkpt>
      <trkpt lat="43.50788" lon="6.76691">
        <ele>12.800000190735</ele>
        <time>2017-03-10T09:55:20.000Z</time>
      </trkpt>
      <trkpt lat="43.50787" lon="6.76687">
        <ele>12.60000038147</ele>
        <time>2017-03-10T09:55:24.000Z</time>
      </trkpt>
      <trkpt lat="43.50785" lon="6.76685">
        <ele>12.39999961853</ele>
        <time>2017-03-10T09:55:46.000Z</time>
      </trkpt>
      <trkpt lat="43.50773" lon="6.76684">
        <ele>12.39999961853</ele>
        <time>2017-03-10T09:55:51.000Z</time>
      </trkpt>
      <trkpt lat="43.50765" lon="6.76689">
        <ele>12.39999961853</ele>
        <time>2017-03-10T09:56:00.000Z</time>
      </trkpt>
      <trkpt lat="43.50768" lon="6.76691">
        <ele>14</ele>
        <time>2017-03-10T09:56:14.000Z</time>
      </trkpt>
      <trkpt lat="43.5079" lon="6.7668">
        <ele>14</ele>
        <time>2017-03-10T09:56:19.000Z</time>
      </trkpt>
      <trkpt lat="43.50812" lon="6.76629">
        <ele>12.39999961853</ele>
        <time>2017-03-10T09:56:26.000Z</time>
      </trkpt>
      <trkpt lat="43.50812" lon="6.7662">
        <ele>11.60000038147</ele>
        <time>2017-03-10T09:56:27.000Z</time>
      </trkpt>
      <trkpt lat="43.50813" lon="6.76604">
        <ele>10.39999961853</ele>
        <time>2017-03-10T09:56:29.000Z</time>
      </trkpt>
      <trkpt lat="43.50811" lon="6.76583">
        <ele>9.3999996185303</ele>
        <time>2017-03-10T09:56:32.000Z</time>
      </trkpt>
      <trkpt lat="43.5081" lon="6.76577">
        <ele>9.6000003814697</ele>
        <time>2017-03-10T09:56:33.000Z</time>
      </trkpt>
      <trkpt lat="43.50805" lon="6.7656">
        <ele>9.3999996185303</ele>
        <time>2017-03-10T09:56:36.000Z</time>
      </trkpt>
      <trkpt lat="43.50797" lon="6.76543">
        <ele>9.8000001907349</ele>
        <time>2017-03-10T09:56:40.000Z</time>
      </trkpt>
      <trkpt lat="43.50792" lon="6.76533">
        <ele>10.800000190735</ele>
        <time>2017-03-10T09:56:43.000Z</time>
      </trkpt>
      <trkpt lat="43.50789" lon="6.76522">
        <ele>12.199999809265</ele>
        <time>2017-03-10T09:56:46.000Z</time>
      </trkpt>
      <trkpt lat="43.50787" lon="6.76516">
        <ele>13.60000038147</ele>
        <time>2017-03-10T09:56:48.000Z</time>
      </trkpt>
      <trkpt lat="43.50786" lon="6.76511">
        <ele>14.800000190735</ele>
        <time>2017-03-10T09:56:50.000Z</time>
      </trkpt>
      <trkpt lat="43.50786" lon="6.76496">
        <ele>16</ele>
        <time>2017-03-10T09:56:55.000Z</time>
      </trkpt>
      <trkpt lat="43.50786" lon="6.76489">
        <ele>16.799999237061</ele>
        <time>2017-03-10T09:56:57.000Z</time>
      </trkpt>
      <trkpt lat="43.50785" lon="6.76486">
        <ele>17.200000762939</ele>
        <time>2017-03-10T09:56:58.000Z</time>
      </trkpt>
      <trkpt lat="43.50767" lon="6.76453">
        <ele>18</ele>
        <time>2017-03-10T09:57:06.000Z</time>
      </trkpt>
      <trkpt lat="43.50758" lon="6.76438">
        <ele>18.200000762939</ele>
        <time>2017-03-10T09:57:10.000Z</time>
      </trkpt>
      <trkpt lat="43.50741" lon="6.76419">
        <ele>18</ele>
        <time>2017-03-10T09:57:16.000Z</time>
      </trkpt>
      <trkpt lat="43.5069" lon="6.76383">
        <ele>17.39999961853</ele>
        <time>2017-03-10T09:57:25.000Z</time>
      </trkpt>
      <trkpt lat="43.50684" lon="6.76379">
        <ele>16.799999237061</ele>
        <time>2017-03-10T09:57:26.000Z</time>
      </trkpt>
      <trkpt lat="43.50672" lon="6.76372">
        <ele>15</ele>
        <time>2017-03-10T09:57:28.000Z</time>
      </trkpt>
      <trkpt lat="43.50661" lon="6.76366">
        <ele>14</ele>
        <time>2017-03-10T09:57:30.000Z</time>
      </trkpt>
      <trkpt lat="43.50622" lon="6.76352">
        <ele>13.199999809265</ele>
        <time>2017-03-10T09:57:36.000Z</time>
      </trkpt>
      <trkpt lat="43.50604" lon="6.76321">
        <ele>13</ele>
        <time>2017-03-10T09:57:40.000Z</time>
      </trkpt>
      <trkpt lat="43.50601" lon="6.76283">
        <ele>11.39999961853</ele>
        <time>2017-03-10T09:57:43.000Z</time>
      </trkpt>
      <trkpt lat="43.50599" lon="6.76269">
        <ele>10.800000190735</ele>
        <time>2017-03-10T09:57:44.000Z</time>
      </trkpt>
      <trkpt lat="43.50596" lon="6.76256">
        <ele>10.39999961853</ele>
        <time>2017-03-10T09:57:45.000Z</time>
      </trkpt>
      <trkpt lat="43.50579" lon="6.76225">
        <ele>8.3999996185303</ele>
        <time>2017-03-10T09:57:48.000Z</time>
      </trkpt>
      <trkpt lat="43.50572" lon="6.76215">
        <ele>7.4000000953674</ele>
        <time>2017-03-10T09:57:49.000Z</time>
      </trkpt>
      <trkpt lat="43.50567" lon="6.76206">
        <ele>5.8000001907349</ele>
        <time>2017-03-10T09:57:50.000Z</time>
      </trkpt>
      <trkpt lat="43.50561" lon="6.76195">
        <ele>3.4000000953674</ele>
        <time>2017-03-10T09:57:51.000Z</time>
      </trkpt>
      <trkpt lat="43.50557" lon="6.76185">
        <ele>1.6000000238419</ele>
        <time>2017-03-10T09:57:52.000Z</time>
      </trkpt>
      <trkpt lat="43.50553" lon="6.76174">
        <ele>0.40000000596046</ele>
        <time>2017-03-10T09:57:53.000Z</time>
      </trkpt>
      <trkpt lat="43.50548" lon="6.76152">
        <ele>-0.60000002384186</ele>
        <time>2017-03-10T09:57:55.000Z</time>
      </trkpt>
      <trkpt lat="43.50535" lon="6.76094">
        <ele>-1.7999999523163</ele>
        <time>2017-03-10T09:58:01.000Z</time>
      </trkpt>
      <trkpt lat="43.5053" lon="6.76076">
        <ele>-2.2000000476837</ele>
        <time>2017-03-10T09:58:03.000Z</time>
      </trkpt>
      <trkpt lat="43.50514" lon="6.76028">
        <ele>-2.4000000953674</ele>
        <time>2017-03-10T09:58:08.000Z</time>
      </trkpt>
      <trkpt lat="43.50482" lon="6.76006">
        <ele>-2.7999999523163</ele>
        <time>2017-03-10T09:58:12.000Z</time>
      </trkpt>
      <trkpt lat="43.50474" lon="6.76002">
        <ele>-3.2000000476837</ele>
        <time>2017-03-10T09:58:13.000Z</time>
      </trkpt>
      <trkpt lat="43.50465" lon="6.75996">
        <ele>-4</ele>
        <time>2017-03-10T09:58:14.000Z</time>
      </trkpt>
      <trkpt lat="43.50458" lon="6.7599">
        <ele>-4.8000001907349</ele>
        <time>2017-03-10T09:58:15.000Z</time>
      </trkpt>
      <trkpt lat="43.50451" lon="6.75983">
        <ele>-5.8000001907349</ele>
        <time>2017-03-10T09:58:16.000Z</time>
      </trkpt>
      <trkpt lat="43.50444" lon="6.75975">
        <ele>-7</ele>
        <time>2017-03-10T09:58:17.000Z</time>
      </trkpt>
      <trkpt lat="43.50437" lon="6.75966">
        <ele>-8.3999996185303</ele>
        <time>2017-03-10T09:58:18.000Z</time>
      </trkpt>
      <trkpt lat="43.50431" lon="6.75956">
        <ele>-10</ele>
        <time>2017-03-10T09:58:19.000Z</time>
      </trkpt>
      <trkpt lat="43.50426" lon="6.75946">
        <ele>-11.60000038147</ele>
        <time>2017-03-10T09:58:20.000Z</time>
      </trkpt>
      <trkpt lat="43.50422" lon="6.75937">
        <ele>-12.800000190735</ele>
        <time>2017-03-10T09:58:21.000Z</time>
      </trkpt>
      <trkpt lat="43.50422" lon="6.75921">
        <ele>-14</ele>
        <time>2017-03-10T09:58:23.000Z</time>
      </trkpt>
      <trkpt lat="43.50425" lon="6.75915">
        <ele>-15</ele>
        <time>2017-03-10T09:58:24.000Z</time>
      </trkpt>
      <trkpt lat="43.50429" lon="6.75909">
        <ele>-16</ele>
        <time>2017-03-10T09:58:25.000Z</time>
      </trkpt>
      <trkpt lat="43.50434" lon="6.75904">
        <ele>-17</ele>
        <time>2017-03-10T09:58:26.000Z</time>
      </trkpt>
      <trkpt lat="43.50458" lon="6.75909">
        <ele>-18</ele>
        <time>2017-03-10T09:58:31.000Z</time>
      </trkpt>
      <trkpt lat="43.50472" lon="6.75879">
        <ele>-18.200000762939</ele>
        <time>2017-03-10T09:58:40.000Z</time>
      </trkpt>
      <trkpt lat="43.50472" lon="6.75864">
        <ele>-18.39999961853</ele>
        <time>2017-03-10T09:58:42.000Z</time>
      </trkpt>
      <trkpt lat="43.50463" lon="6.75849">
        <ele>-18.60000038147</ele>
        <time>2017-03-10T09:58:46.000Z</time>
      </trkpt>
      <trkpt lat="43.50451" lon="6.75842">
        <ele>-19</ele>
        <time>2017-03-10T09:58:49.000Z</time>
      </trkpt>
      <trkpt lat="43.50444" lon="6.75839">
        <ele>-19.200000762939</ele>
        <time>2017-03-10T09:58:53.000Z</time>
      </trkpt>
    </trkseg>
  </trk>
</gpx>